<?xml version="1.0" encoding="UTF-8" standalone="no" ?>
<gpx xmlns="http://www.topografix.com/GPX/1/1" xmlns:xsi="http://www.w3.org/2001/XMLSchema-instance" xsi:schemaLocation="http://www.topografix.com/GPX/1/1 http://www.topografix.com/GPX/1/1/gpx.xsd" version="1.1" creator="VisuGPX - https://www.visugpx.com">
  <metadata>
    <name>vtt cd 44 varades montrelais</name>
    <desc><![CDATA[départ différent pour une autre version sur montrelais.sortie avec 24 enfants]]></desc>
  </metadata>
  <trk>
    <name><![CDATA[2017-11-02-10-24-54 on GPSies.com]]></name>
    <trkseg>
      <trkpt lat="47.38953" lon="-1.03358">
        <ele>23</ele>
        <time>2017-11-02T10:24:54Z</time>
      </trkpt>
      <trkpt lat="47.38957" lon="-1.03353">
        <ele>23</ele>
        <time>2017-11-02T10:27:06Z</time>
      </trkpt>
      <trkpt lat="47.38962" lon="-1.03356">
        <ele>23</ele>
        <time>2017-11-02T10:27:08Z</time>
      </trkpt>
      <trkpt lat="47.3896" lon="-1.03367">
        <ele>24</ele>
        <time>2017-11-02T10:27:12Z</time>
      </trkpt>
      <trkpt lat="47.38951" lon="-1.03372">
        <ele>24</ele>
        <time>2017-11-02T10:27:17Z</time>
      </trkpt>
      <trkpt lat="47.38946" lon="-1.0339">
        <ele>23</ele>
        <time>2017-11-02T10:27:23Z</time>
      </trkpt>
      <trkpt lat="47.38942" lon="-1.0342">
        <ele>23</ele>
        <time>2017-11-02T10:27:32Z</time>
      </trkpt>
      <trkpt lat="47.38935" lon="-1.03439">
        <ele>23</ele>
        <time>2017-11-02T10:27:39Z</time>
      </trkpt>
      <trkpt lat="47.38929" lon="-1.03462">
        <ele>23</ele>
        <time>2017-11-02T10:27:45Z</time>
      </trkpt>
      <trkpt lat="47.38925" lon="-1.03496">
        <ele>23</ele>
        <time>2017-11-02T10:27:53Z</time>
      </trkpt>
      <trkpt lat="47.38922" lon="-1.03527">
        <ele>23</ele>
        <time>2017-11-02T10:28:01Z</time>
      </trkpt>
      <trkpt lat="47.38924" lon="-1.03544">
        <ele>23</ele>
        <time>2017-11-02T10:28:07Z</time>
      </trkpt>
      <trkpt lat="47.38924" lon="-1.03551">
        <ele>23</ele>
        <time>2017-11-02T10:28:11Z</time>
      </trkpt>
      <trkpt lat="47.38923" lon="-1.03552">
        <ele>23</ele>
        <time>2017-11-02T10:28:12Z</time>
      </trkpt>
      <trkpt lat="47.3891" lon="-1.03551">
        <ele>24</ele>
        <time>2017-11-02T10:28:17Z</time>
      </trkpt>
      <trkpt lat="47.38878" lon="-1.03546">
        <ele>24</ele>
        <time>2017-11-02T10:28:26Z</time>
      </trkpt>
      <trkpt lat="47.38841" lon="-1.03539">
        <ele>24</ele>
        <time>2017-11-02T10:28:36Z</time>
      </trkpt>
      <trkpt lat="47.38815" lon="-1.03532">
        <ele>24</ele>
        <time>2017-11-02T10:28:44Z</time>
      </trkpt>
      <trkpt lat="47.38781" lon="-1.03521">
        <ele>23</ele>
        <time>2017-11-02T10:28:54Z</time>
      </trkpt>
      <trkpt lat="47.38747" lon="-1.03512">
        <ele>22</ele>
        <time>2017-11-02T10:29:02Z</time>
      </trkpt>
      <trkpt lat="47.38722" lon="-1.03505">
        <ele>21</ele>
        <time>2017-11-02T10:29:08Z</time>
      </trkpt>
      <trkpt lat="47.38714" lon="-1.03503">
        <ele>20</ele>
        <time>2017-11-02T10:29:10Z</time>
      </trkpt>
      <trkpt lat="47.38707" lon="-1.03501">
        <ele>20</ele>
        <time>2017-11-02T10:29:12Z</time>
      </trkpt>
      <trkpt lat="47.38697" lon="-1.035">
        <ele>19</ele>
        <time>2017-11-02T10:29:16Z</time>
      </trkpt>
      <trkpt lat="47.38691" lon="-1.03504">
        <ele>17</ele>
        <time>2017-11-02T10:29:37Z</time>
      </trkpt>
      <trkpt lat="47.3868" lon="-1.03503">
        <ele>17</ele>
        <time>2017-11-02T10:29:42Z</time>
      </trkpt>
      <trkpt lat="47.38668" lon="-1.03497">
        <ele>17</ele>
        <time>2017-11-02T10:29:46Z</time>
      </trkpt>
      <trkpt lat="47.38665" lon="-1.03498">
        <ele>17</ele>
        <time>2017-11-02T10:29:47Z</time>
      </trkpt>
      <trkpt lat="47.38648" lon="-1.03516">
        <ele>17</ele>
        <time>2017-11-02T10:29:51Z</time>
      </trkpt>
      <trkpt lat="47.38637" lon="-1.03526">
        <ele>16</ele>
        <time>2017-11-02T10:29:53Z</time>
      </trkpt>
      <trkpt lat="47.38623" lon="-1.0354">
        <ele>15</ele>
        <time>2017-11-02T10:29:56Z</time>
      </trkpt>
      <trkpt lat="47.38613" lon="-1.03548">
        <ele>14</ele>
        <time>2017-11-02T10:29:58Z</time>
      </trkpt>
      <trkpt lat="47.38601" lon="-1.03558">
        <ele>12</ele>
        <time>2017-11-02T10:30:01Z</time>
      </trkpt>
      <trkpt lat="47.38589" lon="-1.03566">
        <ele>11</ele>
        <time>2017-11-02T10:30:04Z</time>
      </trkpt>
      <trkpt lat="47.38585" lon="-1.03569">
        <ele>10</ele>
        <time>2017-11-02T10:30:05Z</time>
      </trkpt>
      <trkpt lat="47.38577" lon="-1.03575">
        <ele>10</ele>
        <time>2017-11-02T10:30:07Z</time>
      </trkpt>
      <trkpt lat="47.38565" lon="-1.03584">
        <ele>9</ele>
        <time>2017-11-02T10:30:10Z</time>
      </trkpt>
      <trkpt lat="47.38551" lon="-1.03591">
        <ele>8</ele>
        <time>2017-11-02T10:30:13Z</time>
      </trkpt>
      <trkpt lat="47.38538" lon="-1.03599">
        <ele>7</ele>
        <time>2017-11-02T10:30:16Z</time>
      </trkpt>
      <trkpt lat="47.38534" lon="-1.03601">
        <ele>6</ele>
        <time>2017-11-02T10:30:17Z</time>
      </trkpt>
      <trkpt lat="47.3852" lon="-1.03608">
        <ele>5</ele>
        <time>2017-11-02T10:30:20Z</time>
      </trkpt>
      <trkpt lat="47.38511" lon="-1.03613">
        <ele>4</ele>
        <time>2017-11-02T10:30:22Z</time>
      </trkpt>
      <trkpt lat="47.38497" lon="-1.0362">
        <ele>3</ele>
        <time>2017-11-02T10:30:25Z</time>
      </trkpt>
      <trkpt lat="47.38479" lon="-1.03628">
        <ele>2</ele>
        <time>2017-11-02T10:30:29Z</time>
      </trkpt>
      <trkpt lat="47.38465" lon="-1.03633">
        <ele>1</ele>
        <time>2017-11-02T10:30:32Z</time>
      </trkpt>
      <trkpt lat="47.3846" lon="-1.03634">
        <ele>16.2</ele>
        <time>2017-11-02T10:30:33Z</time>
      </trkpt>
      <trkpt lat="47.38441" lon="-1.03639">
        <ele>-1</ele>
        <time>2017-11-02T10:30:37Z</time>
      </trkpt>
      <trkpt lat="47.38429" lon="-1.03643">
        <ele>-1</ele>
        <time>2017-11-02T10:30:40Z</time>
      </trkpt>
      <trkpt lat="47.3842" lon="-1.03645">
        <ele>-2</ele>
        <time>2017-11-02T10:30:42Z</time>
      </trkpt>
      <trkpt lat="47.38401" lon="-1.03651">
        <ele>-3</ele>
        <time>2017-11-02T10:30:46Z</time>
      </trkpt>
      <trkpt lat="47.38396" lon="-1.03653">
        <ele>-3</ele>
        <time>2017-11-02T10:30:47Z</time>
      </trkpt>
      <trkpt lat="47.3837" lon="-1.03659">
        <ele>-4</ele>
        <time>2017-11-02T10:30:52Z</time>
      </trkpt>
      <trkpt lat="47.38341" lon="-1.03667">
        <ele>-5</ele>
        <time>2017-11-02T10:30:58Z</time>
      </trkpt>
      <trkpt lat="47.38327" lon="-1.0367">
        <ele>-5</ele>
        <time>2017-11-02T10:31:01Z</time>
      </trkpt>
      <trkpt lat="47.383" lon="-1.03675">
        <ele>-6</ele>
        <time>2017-11-02T10:31:07Z</time>
      </trkpt>
      <trkpt lat="47.38292" lon="-1.03676">
        <ele>-6</ele>
        <time>2017-11-02T10:31:09Z</time>
      </trkpt>
      <trkpt lat="47.38274" lon="-1.03682">
        <ele>-6</ele>
        <time>2017-11-02T10:31:14Z</time>
      </trkpt>
      <trkpt lat="47.38267" lon="-1.03686">
        <ele>-7</ele>
        <time>2017-11-02T10:31:19Z</time>
      </trkpt>
      <trkpt lat="47.38265" lon="-1.03686">
        <ele>-7</ele>
        <time>2017-11-02T10:31:21Z</time>
      </trkpt>
      <trkpt lat="47.3826" lon="-1.03681">
        <ele>-7</ele>
        <time>2017-11-02T10:31:24Z</time>
      </trkpt>
      <trkpt lat="47.38254" lon="-1.03673">
        <ele>-7</ele>
        <time>2017-11-02T10:31:27Z</time>
      </trkpt>
      <trkpt lat="47.38249" lon="-1.03662">
        <ele>-7</ele>
        <time>2017-11-02T10:31:30Z</time>
      </trkpt>
      <trkpt lat="47.38236" lon="-1.03627">
        <ele>-7</ele>
        <time>2017-11-02T10:31:38Z</time>
      </trkpt>
      <trkpt lat="47.38231" lon="-1.03592">
        <ele>-7</ele>
        <time>2017-11-02T10:31:45Z</time>
      </trkpt>
      <trkpt lat="47.38225" lon="-1.03545">
        <ele>-7</ele>
        <time>2017-11-02T10:31:54Z</time>
      </trkpt>
      <trkpt lat="47.3822" lon="-1.03482">
        <ele>-7</ele>
        <time>2017-11-02T10:32:06Z</time>
      </trkpt>
      <trkpt lat="47.38215" lon="-1.03428">
        <ele>-7</ele>
        <time>2017-11-02T10:32:17Z</time>
      </trkpt>
      <trkpt lat="47.3821" lon="-1.03373">
        <ele>-7</ele>
        <time>2017-11-02T10:32:28Z</time>
      </trkpt>
      <trkpt lat="47.3821" lon="-1.03368">
        <ele>-7</ele>
        <time>2017-11-02T10:32:29Z</time>
      </trkpt>
      <trkpt lat="47.38204" lon="-1.03327">
        <ele>-7</ele>
        <time>2017-11-02T10:32:37Z</time>
      </trkpt>
      <trkpt lat="47.38196" lon="-1.03271">
        <ele>-7</ele>
        <time>2017-11-02T10:32:48Z</time>
      </trkpt>
      <trkpt lat="47.38189" lon="-1.03214">
        <ele>-7</ele>
        <time>2017-11-02T10:32:59Z</time>
      </trkpt>
      <trkpt lat="47.38183" lon="-1.03176">
        <ele>-7</ele>
        <time>2017-11-02T10:33:07Z</time>
      </trkpt>
      <trkpt lat="47.38174" lon="-1.03125">
        <ele>-7</ele>
        <time>2017-11-02T10:33:17Z</time>
      </trkpt>
      <trkpt lat="47.38163" lon="-1.03082">
        <ele>-7</ele>
        <time>2017-11-02T10:33:26Z</time>
      </trkpt>
      <trkpt lat="47.38153" lon="-1.03041">
        <ele>-7</ele>
        <time>2017-11-02T10:33:35Z</time>
      </trkpt>
      <trkpt lat="47.38139" lon="-1.03017">
        <ele>-7</ele>
        <time>2017-11-02T10:33:42Z</time>
      </trkpt>
      <trkpt lat="47.38122" lon="-1.03006">
        <ele>-7</ele>
        <time>2017-11-02T10:33:48Z</time>
      </trkpt>
      <trkpt lat="47.38111" lon="-1.02991">
        <ele>-7</ele>
        <time>2017-11-02T10:33:53Z</time>
      </trkpt>
      <trkpt lat="47.38105" lon="-1.02959">
        <ele>-7</ele>
        <time>2017-11-02T10:34:01Z</time>
      </trkpt>
      <trkpt lat="47.381" lon="-1.02923">
        <ele>-8</ele>
        <time>2017-11-02T10:34:10Z</time>
      </trkpt>
      <trkpt lat="47.38098" lon="-1.02894">
        <ele>-8</ele>
        <time>2017-11-02T10:34:17Z</time>
      </trkpt>
      <trkpt lat="47.38091" lon="-1.02863">
        <ele>-8</ele>
        <time>2017-11-02T10:34:25Z</time>
      </trkpt>
      <trkpt lat="47.38089" lon="-1.02839">
        <ele>-8</ele>
        <time>2017-11-02T10:34:31Z</time>
      </trkpt>
      <trkpt lat="47.38088" lon="-1.02832">
        <ele>-8</ele>
        <time>2017-11-02T10:34:33Z</time>
      </trkpt>
      <trkpt lat="47.38086" lon="-1.02803">
        <ele>-8</ele>
        <time>2017-11-02T10:34:41Z</time>
      </trkpt>
      <trkpt lat="47.38082" lon="-1.0278">
        <ele>-8</ele>
        <time>2017-11-02T10:34:48Z</time>
      </trkpt>
      <trkpt lat="47.38083" lon="-1.02755">
        <ele>-8</ele>
        <time>2017-11-02T10:34:55Z</time>
      </trkpt>
      <trkpt lat="47.38085" lon="-1.02734">
        <ele>-8</ele>
        <time>2017-11-02T10:35:02Z</time>
      </trkpt>
      <trkpt lat="47.3809" lon="-1.02723">
        <ele>-7</ele>
        <time>2017-11-02T10:35:08Z</time>
      </trkpt>
      <trkpt lat="47.38091" lon="-1.0272">
        <ele>-7</ele>
        <time>2017-11-02T10:35:09Z</time>
      </trkpt>
      <trkpt lat="47.3809" lon="-1.02709">
        <ele>-6</ele>
        <time>2017-11-02T10:35:13Z</time>
      </trkpt>
      <trkpt lat="47.3809" lon="-1.02696">
        <ele>-6</ele>
        <time>2017-11-02T10:35:17Z</time>
      </trkpt>
      <trkpt lat="47.38093" lon="-1.02688">
        <ele>-6</ele>
        <time>2017-11-02T10:35:20Z</time>
      </trkpt>
      <trkpt lat="47.38102" lon="-1.02688">
        <ele>-5</ele>
        <time>2017-11-02T10:35:24Z</time>
      </trkpt>
      <trkpt lat="47.38128" lon="-1.02692">
        <ele>-6</ele>
        <time>2017-11-02T10:35:31Z</time>
      </trkpt>
      <trkpt lat="47.38147" lon="-1.02697">
        <ele>-6</ele>
        <time>2017-11-02T10:35:38Z</time>
      </trkpt>
      <trkpt lat="47.3817" lon="-1.02699">
        <ele>-5</ele>
        <time>2017-11-02T10:35:46Z</time>
      </trkpt>
      <trkpt lat="47.38181" lon="-1.02701">
        <ele>-5</ele>
        <time>2017-11-02T10:35:50Z</time>
      </trkpt>
      <trkpt lat="47.38195" lon="-1.02702">
        <ele>-4</ele>
        <time>2017-11-02T10:35:56Z</time>
      </trkpt>
      <trkpt lat="47.382" lon="-1.02703">
        <ele>-4</ele>
        <time>2017-11-02T10:35:58Z</time>
      </trkpt>
      <trkpt lat="47.38211" lon="-1.02708">
        <ele>-3</ele>
        <time>2017-11-02T10:36:03Z</time>
      </trkpt>
      <trkpt lat="47.38213" lon="-1.02716">
        <ele>-3</ele>
        <time>2017-11-02T10:36:06Z</time>
      </trkpt>
      <trkpt lat="47.38211" lon="-1.02719">
        <ele>-3</ele>
        <time>2017-11-02T10:36:07Z</time>
      </trkpt>
      <trkpt lat="47.382" lon="-1.02735">
        <ele>-2</ele>
        <time>2017-11-02T10:36:12Z</time>
      </trkpt>
      <trkpt lat="47.38191" lon="-1.02757">
        <ele>-3</ele>
        <time>2017-11-02T10:36:17Z</time>
      </trkpt>
      <trkpt lat="47.38186" lon="-1.02783">
        <ele>-4</ele>
        <time>2017-11-02T10:36:24Z</time>
      </trkpt>
      <trkpt lat="47.38183" lon="-1.02791">
        <ele>-4</ele>
        <time>2017-11-02T10:40:19Z</time>
      </trkpt>
      <trkpt lat="47.38181" lon="-1.02792">
        <ele>-4</ele>
        <time>2017-11-02T10:40:20Z</time>
      </trkpt>
      <trkpt lat="47.38173" lon="-1.02795">
        <ele>-4</ele>
        <time>2017-11-02T10:40:24Z</time>
      </trkpt>
      <trkpt lat="47.38168" lon="-1.02795">
        <ele>-4</ele>
        <time>2017-11-02T10:40:26Z</time>
      </trkpt>
      <trkpt lat="47.38149" lon="-1.02797">
        <ele>-5</ele>
        <time>2017-11-02T10:40:31Z</time>
      </trkpt>
      <trkpt lat="47.38146" lon="-1.02797">
        <ele>-5</ele>
        <time>2017-11-02T10:40:32Z</time>
      </trkpt>
      <trkpt lat="47.38121" lon="-1.02799">
        <ele>-6</ele>
        <time>2017-11-02T10:40:39Z</time>
      </trkpt>
      <trkpt lat="47.38117" lon="-1.02799">
        <ele>-6</ele>
        <time>2017-11-02T10:40:41Z</time>
      </trkpt>
      <trkpt lat="47.38111" lon="-1.028">
        <ele>-6</ele>
        <time>2017-11-02T10:40:44Z</time>
      </trkpt>
      <trkpt lat="47.38106" lon="-1.02799">
        <ele>-7</ele>
        <time>2017-11-02T10:40:50Z</time>
      </trkpt>
      <trkpt lat="47.38104" lon="-1.02792">
        <ele>-7</ele>
        <time>2017-11-02T10:40:52Z</time>
      </trkpt>
      <trkpt lat="47.38098" lon="-1.02767">
        <ele>-6</ele>
        <time>2017-11-02T10:40:57Z</time>
      </trkpt>
      <trkpt lat="47.38092" lon="-1.02725">
        <ele>-6</ele>
        <time>2017-11-02T10:41:06Z</time>
      </trkpt>
      <trkpt lat="47.38089" lon="-1.02688">
        <ele>-5</ele>
        <time>2017-11-02T10:41:15Z</time>
      </trkpt>
      <trkpt lat="47.3808" lon="-1.02671">
        <ele>-5</ele>
        <time>2017-11-02T10:41:20Z</time>
      </trkpt>
      <trkpt lat="47.38079" lon="-1.02667">
        <ele>-5</ele>
        <time>2017-11-02T10:41:21Z</time>
      </trkpt>
      <trkpt lat="47.38077" lon="-1.02664">
        <ele>-5</ele>
        <time>2017-11-02T10:41:22Z</time>
      </trkpt>
      <trkpt lat="47.38071" lon="-1.02662">
        <ele>-5</ele>
        <time>2017-11-02T10:41:24Z</time>
      </trkpt>
      <trkpt lat="47.38065" lon="-1.02662">
        <ele>-4</ele>
        <time>2017-11-02T10:41:26Z</time>
      </trkpt>
      <trkpt lat="47.38046" lon="-1.02663">
        <ele>-4</ele>
        <time>2017-11-02T10:41:32Z</time>
      </trkpt>
      <trkpt lat="47.38019" lon="-1.02664">
        <ele>-4</ele>
        <time>2017-11-02T10:41:40Z</time>
      </trkpt>
      <trkpt lat="47.37986" lon="-1.02664">
        <ele>-4</ele>
        <time>2017-11-02T10:41:50Z</time>
      </trkpt>
      <trkpt lat="47.3796" lon="-1.02666">
        <ele>-4</ele>
        <time>2017-11-02T10:41:58Z</time>
      </trkpt>
      <trkpt lat="47.3793" lon="-1.02666">
        <ele>-4</ele>
        <time>2017-11-02T10:42:07Z</time>
      </trkpt>
      <trkpt lat="47.37916" lon="-1.02664">
        <ele>-4</ele>
        <time>2017-11-02T10:42:11Z</time>
      </trkpt>
      <trkpt lat="47.37909" lon="-1.02663">
        <ele>-4</ele>
        <time>2017-11-02T10:42:13Z</time>
      </trkpt>
      <trkpt lat="47.37879" lon="-1.02653">
        <ele>-4</ele>
        <time>2017-11-02T10:42:22Z</time>
      </trkpt>
      <trkpt lat="47.37854" lon="-1.02639">
        <ele>-4</ele>
        <time>2017-11-02T10:42:30Z</time>
      </trkpt>
      <trkpt lat="47.37836" lon="-1.02625">
        <ele>-4</ele>
        <time>2017-11-02T10:42:36Z</time>
      </trkpt>
      <trkpt lat="47.37814" lon="-1.026">
        <ele>-5</ele>
        <time>2017-11-02T10:42:43Z</time>
      </trkpt>
      <trkpt lat="47.37807" lon="-1.0259">
        <ele>-5</ele>
        <time>2017-11-02T10:42:45Z</time>
      </trkpt>
      <trkpt lat="47.37788" lon="-1.02559">
        <ele>-6</ele>
        <time>2017-11-02T10:42:50Z</time>
      </trkpt>
      <trkpt lat="47.37781" lon="-1.02546">
        <ele>-6</ele>
        <time>2017-11-02T10:42:52Z</time>
      </trkpt>
      <trkpt lat="47.37767" lon="-1.02514">
        <ele>-7</ele>
        <time>2017-11-02T10:42:57Z</time>
      </trkpt>
      <trkpt lat="47.3776" lon="-1.02489">
        <ele>-7</ele>
        <time>2017-11-02T10:43:02Z</time>
      </trkpt>
      <trkpt lat="47.37751" lon="-1.02457">
        <ele>-6</ele>
        <time>2017-11-02T10:43:10Z</time>
      </trkpt>
      <trkpt lat="47.37737" lon="-1.02443">
        <ele>-5</ele>
        <time>2017-11-02T10:43:15Z</time>
      </trkpt>
      <trkpt lat="47.37701" lon="-1.02421">
        <ele>-5</ele>
        <time>2017-11-02T10:43:25Z</time>
      </trkpt>
      <trkpt lat="47.37669" lon="-1.02408">
        <ele>-6</ele>
        <time>2017-11-02T10:43:34Z</time>
      </trkpt>
      <trkpt lat="47.3763" lon="-1.02392">
        <ele>-6</ele>
        <time>2017-11-02T10:43:45Z</time>
      </trkpt>
      <trkpt lat="47.376" lon="-1.02381">
        <ele>-6</ele>
        <time>2017-11-02T10:43:54Z</time>
      </trkpt>
      <trkpt lat="47.37569" lon="-1.02368">
        <ele>-6</ele>
        <time>2017-11-02T10:44:03Z</time>
      </trkpt>
      <trkpt lat="47.37543" lon="-1.02359">
        <ele>-6</ele>
        <time>2017-11-02T10:44:11Z</time>
      </trkpt>
      <trkpt lat="47.37521" lon="-1.02351">
        <ele>-6</ele>
        <time>2017-11-02T10:44:18Z</time>
      </trkpt>
      <trkpt lat="47.37495" lon="-1.02342">
        <ele>-6</ele>
        <time>2017-11-02T10:44:26Z</time>
      </trkpt>
      <trkpt lat="47.37474" lon="-1.0233">
        <ele>-6</ele>
        <time>2017-11-02T10:44:34Z</time>
      </trkpt>
      <trkpt lat="47.37466" lon="-1.02326">
        <ele>-6</ele>
        <time>2017-11-02T10:44:37Z</time>
      </trkpt>
      <trkpt lat="47.37463" lon="-1.02327">
        <ele>-6</ele>
        <time>2017-11-02T10:44:38Z</time>
      </trkpt>
      <trkpt lat="47.37444" lon="-1.02328">
        <ele>-6</ele>
        <time>2017-11-02T10:44:44Z</time>
      </trkpt>
      <trkpt lat="47.37423" lon="-1.02327">
        <ele>-5</ele>
        <time>2017-11-02T10:44:51Z</time>
      </trkpt>
      <trkpt lat="47.37414" lon="-1.02326">
        <ele>-5</ele>
        <time>2017-11-02T10:44:54Z</time>
      </trkpt>
      <trkpt lat="47.37389" lon="-1.02325">
        <ele>-4</ele>
        <time>2017-11-02T10:45:02Z</time>
      </trkpt>
      <trkpt lat="47.37365" lon="-1.02322">
        <ele>-4</ele>
        <time>2017-11-02T10:45:06Z</time>
      </trkpt>
      <trkpt lat="47.37354" lon="-1.02322">
        <ele>-5</ele>
        <time>2017-11-02T10:45:08Z</time>
      </trkpt>
      <trkpt lat="47.37346" lon="-1.02324">
        <ele>-5</ele>
        <time>2017-11-02T10:45:10Z</time>
      </trkpt>
      <trkpt lat="47.37329" lon="-1.02325">
        <ele>-4</ele>
        <time>2017-11-02T10:45:15Z</time>
      </trkpt>
      <trkpt lat="47.37293" lon="-1.02325">
        <ele>-4</ele>
        <time>2017-11-02T10:45:23Z</time>
      </trkpt>
      <trkpt lat="47.37262" lon="-1.02324">
        <ele>-5</ele>
        <time>2017-11-02T10:45:31Z</time>
      </trkpt>
      <trkpt lat="47.37238" lon="-1.02313">
        <ele>-5</ele>
        <time>2017-11-02T10:45:38Z</time>
      </trkpt>
      <trkpt lat="47.37225" lon="-1.023">
        <ele>-5</ele>
        <time>2017-11-02T10:45:44Z</time>
      </trkpt>
      <trkpt lat="47.3722" lon="-1.02291">
        <ele>-6</ele>
        <time>2017-11-02T10:46:10Z</time>
      </trkpt>
      <trkpt lat="47.37208" lon="-1.02276">
        <ele>-6</ele>
        <time>2017-11-02T10:46:16Z</time>
      </trkpt>
      <trkpt lat="47.37195" lon="-1.02259">
        <ele>-5</ele>
        <time>2017-11-02T10:46:22Z</time>
      </trkpt>
      <trkpt lat="47.37182" lon="-1.02245">
        <ele>-5</ele>
        <time>2017-11-02T10:46:27Z</time>
      </trkpt>
      <trkpt lat="47.37159" lon="-1.02216">
        <ele>-5</ele>
        <time>2017-11-02T10:46:36Z</time>
      </trkpt>
      <trkpt lat="47.37129" lon="-1.02178">
        <ele>-5</ele>
        <time>2017-11-02T10:46:48Z</time>
      </trkpt>
      <trkpt lat="47.37121" lon="-1.02164">
        <ele>-5</ele>
        <time>2017-11-02T10:46:51Z</time>
      </trkpt>
      <trkpt lat="47.37114" lon="-1.02141">
        <ele>-6</ele>
        <time>2017-11-02T10:46:55Z</time>
      </trkpt>
      <trkpt lat="47.37113" lon="-1.02135">
        <ele>-6</ele>
        <time>2017-11-02T10:46:56Z</time>
      </trkpt>
      <trkpt lat="47.37107" lon="-1.02112">
        <ele>-7</ele>
        <time>2017-11-02T10:47:00Z</time>
      </trkpt>
      <trkpt lat="47.37103" lon="-1.02096">
        <ele>-8</ele>
        <time>2017-11-02T10:47:03Z</time>
      </trkpt>
      <trkpt lat="47.371" lon="-1.02082">
        <ele>-8</ele>
        <time>2017-11-02T10:47:06Z</time>
      </trkpt>
      <trkpt lat="47.37097" lon="-1.02069">
        <ele>-9</ele>
        <time>2017-11-02T10:47:09Z</time>
      </trkpt>
      <trkpt lat="47.37091" lon="-1.02042">
        <ele>-9</ele>
        <time>2017-11-02T10:47:15Z</time>
      </trkpt>
      <trkpt lat="47.37089" lon="-1.02016">
        <ele>-9</ele>
        <time>2017-11-02T10:47:21Z</time>
      </trkpt>
      <trkpt lat="47.37086" lon="-1.01984">
        <ele>-9</ele>
        <time>2017-11-02T10:47:28Z</time>
      </trkpt>
      <trkpt lat="47.37085" lon="-1.01945">
        <ele>-9</ele>
        <time>2017-11-02T10:47:37Z</time>
      </trkpt>
      <trkpt lat="47.37085" lon="-1.01912">
        <ele>-9</ele>
        <time>2017-11-02T10:47:44Z</time>
      </trkpt>
      <trkpt lat="47.37085" lon="-1.01904">
        <ele>-9</ele>
        <time>2017-11-02T10:47:46Z</time>
      </trkpt>
      <trkpt lat="47.37086" lon="-1.01878">
        <ele>-10</ele>
        <time>2017-11-02T10:47:52Z</time>
      </trkpt>
      <trkpt lat="47.37088" lon="-1.01849">
        <ele>-10</ele>
        <time>2017-11-02T10:47:59Z</time>
      </trkpt>
      <trkpt lat="47.3709" lon="-1.01817">
        <ele>-10</ele>
        <time>2017-11-02T10:48:07Z</time>
      </trkpt>
      <trkpt lat="47.37093" lon="-1.01787">
        <ele>-9</ele>
        <time>2017-11-02T10:48:16Z</time>
      </trkpt>
      <trkpt lat="47.37099" lon="-1.01761">
        <ele>-8</ele>
        <time>2017-11-02T10:48:24Z</time>
      </trkpt>
      <trkpt lat="47.371" lon="-1.01758">
        <ele>-8</ele>
        <time>2017-11-02T10:48:25Z</time>
      </trkpt>
      <trkpt lat="47.37104" lon="-1.01737">
        <ele>-7</ele>
        <time>2017-11-02T10:48:32Z</time>
      </trkpt>
      <trkpt lat="47.37105" lon="-1.01731">
        <ele>-7</ele>
        <time>2017-11-02T10:48:34Z</time>
      </trkpt>
      <trkpt lat="47.37111" lon="-1.01701">
        <ele>-6</ele>
        <time>2017-11-02T10:48:42Z</time>
      </trkpt>
      <trkpt lat="47.37112" lon="-1.01697">
        <ele>-6</ele>
        <time>2017-11-02T10:48:43Z</time>
      </trkpt>
      <trkpt lat="47.37119" lon="-1.01669">
        <ele>-6</ele>
        <time>2017-11-02T10:48:49Z</time>
      </trkpt>
      <trkpt lat="47.37127" lon="-1.01649">
        <ele>-7</ele>
        <time>2017-11-02T10:48:54Z</time>
      </trkpt>
      <trkpt lat="47.37142" lon="-1.01633">
        <ele>-7</ele>
        <time>2017-11-02T10:49:00Z</time>
      </trkpt>
      <trkpt lat="47.37152" lon="-1.01612">
        <ele>-6</ele>
        <time>2017-11-02T10:49:06Z</time>
      </trkpt>
      <trkpt lat="47.3716" lon="-1.01585">
        <ele>-6</ele>
        <time>2017-11-02T10:49:12Z</time>
      </trkpt>
      <trkpt lat="47.37168" lon="-1.01551">
        <ele>-7</ele>
        <time>2017-11-02T10:49:19Z</time>
      </trkpt>
      <trkpt lat="47.37174" lon="-1.01521">
        <ele>-7</ele>
        <time>2017-11-02T10:49:26Z</time>
      </trkpt>
      <trkpt lat="47.37178" lon="-1.01494">
        <ele>-7</ele>
        <time>2017-11-02T10:49:33Z</time>
      </trkpt>
      <trkpt lat="47.3718" lon="-1.01473">
        <ele>-7</ele>
        <time>2017-11-02T10:49:40Z</time>
      </trkpt>
      <trkpt lat="47.37183" lon="-1.0144">
        <ele>-7</ele>
        <time>2017-11-02T10:51:34Z</time>
      </trkpt>
      <trkpt lat="47.37183" lon="-1.01438">
        <ele>-7</ele>
        <time>2017-11-02T10:51:35Z</time>
      </trkpt>
      <trkpt lat="47.37187" lon="-1.01414">
        <ele>-7</ele>
        <time>2017-11-02T10:51:42Z</time>
      </trkpt>
      <trkpt lat="47.37194" lon="-1.01377">
        <ele>-7</ele>
        <time>2017-11-02T10:51:51Z</time>
      </trkpt>
      <trkpt lat="47.372" lon="-1.01344">
        <ele>-6</ele>
        <time>2017-11-02T10:51:59Z</time>
      </trkpt>
      <trkpt lat="47.37206" lon="-1.01315">
        <ele>-6</ele>
        <time>2017-11-02T10:52:06Z</time>
      </trkpt>
      <trkpt lat="47.37212" lon="-1.0128">
        <ele>-6</ele>
        <time>2017-11-02T10:52:14Z</time>
      </trkpt>
      <trkpt lat="47.37218" lon="-1.01243">
        <ele>-7</ele>
        <time>2017-11-02T10:52:22Z</time>
      </trkpt>
      <trkpt lat="47.37224" lon="-1.01202">
        <ele>-7</ele>
        <time>2017-11-02T10:52:32Z</time>
      </trkpt>
      <trkpt lat="47.37231" lon="-1.01159">
        <ele>-7</ele>
        <time>2017-11-02T10:52:42Z</time>
      </trkpt>
      <trkpt lat="47.37242" lon="-1.0112">
        <ele>-7</ele>
        <time>2017-11-02T10:52:51Z</time>
      </trkpt>
      <trkpt lat="47.37252" lon="-1.0108">
        <ele>-7</ele>
        <time>2017-11-02T10:53:00Z</time>
      </trkpt>
      <trkpt lat="47.37262" lon="-1.01041">
        <ele>-7</ele>
        <time>2017-11-02T10:53:09Z</time>
      </trkpt>
      <trkpt lat="47.37274" lon="-1.00992">
        <ele>-6</ele>
        <time>2017-11-02T10:53:21Z</time>
      </trkpt>
      <trkpt lat="47.37285" lon="-1.00946">
        <ele>-6</ele>
        <time>2017-11-02T10:53:32Z</time>
      </trkpt>
      <trkpt lat="47.37296" lon="-1.00902">
        <ele>-6</ele>
        <time>2017-11-02T10:53:42Z</time>
      </trkpt>
      <trkpt lat="47.37305" lon="-1.00864">
        <ele>-7</ele>
        <time>2017-11-02T10:53:51Z</time>
      </trkpt>
      <trkpt lat="47.37316" lon="-1.00821">
        <ele>-7</ele>
        <time>2017-11-02T10:54:01Z</time>
      </trkpt>
      <trkpt lat="47.37326" lon="-1.00781">
        <ele>-7</ele>
        <time>2017-11-02T10:54:11Z</time>
      </trkpt>
      <trkpt lat="47.37336" lon="-1.00741">
        <ele>-6</ele>
        <time>2017-11-02T10:54:21Z</time>
      </trkpt>
      <trkpt lat="47.37345" lon="-1.00705">
        <ele>-6</ele>
        <time>2017-11-02T10:54:30Z</time>
      </trkpt>
      <trkpt lat="47.37355" lon="-1.00664">
        <ele>-6</ele>
        <time>2017-11-02T10:54:40Z</time>
      </trkpt>
      <trkpt lat="47.37364" lon="-1.00624">
        <ele>-6</ele>
        <time>2017-11-02T10:54:50Z</time>
      </trkpt>
      <trkpt lat="47.37373" lon="-1.00586">
        <ele>-6</ele>
        <time>2017-11-02T10:54:59Z</time>
      </trkpt>
      <trkpt lat="47.37382" lon="-1.00548">
        <ele>-6</ele>
        <time>2017-11-02T10:55:09Z</time>
      </trkpt>
      <trkpt lat="47.3739" lon="-1.00514">
        <ele>-6</ele>
        <time>2017-11-02T10:55:17Z</time>
      </trkpt>
      <trkpt lat="47.37399" lon="-1.00475">
        <ele>-6</ele>
        <time>2017-11-02T10:55:26Z</time>
      </trkpt>
      <trkpt lat="47.37408" lon="-1.00439">
        <ele>-6</ele>
        <time>2017-11-02T10:55:35Z</time>
      </trkpt>
      <trkpt lat="47.37416" lon="-1.00407">
        <ele>-6</ele>
        <time>2017-11-02T10:55:42Z</time>
      </trkpt>
      <trkpt lat="47.37428" lon="-1.00362">
        <ele>-6</ele>
        <time>2017-11-02T10:55:52Z</time>
      </trkpt>
      <trkpt lat="47.37441" lon="-1.003">
        <ele>-7</ele>
        <time>2017-11-02T10:56:07Z</time>
      </trkpt>
      <trkpt lat="47.3745" lon="-1.00263">
        <ele>-6</ele>
        <time>2017-11-02T10:56:16Z</time>
      </trkpt>
      <trkpt lat="47.37459" lon="-1.00232">
        <ele>-6</ele>
        <time>2017-11-02T10:56:24Z</time>
      </trkpt>
      <trkpt lat="47.37476" lon="-1.00197">
        <ele>-6</ele>
        <time>2017-11-02T10:56:34Z</time>
      </trkpt>
      <trkpt lat="47.37493" lon="-1.00165">
        <ele>-6</ele>
        <time>2017-11-02T10:56:43Z</time>
      </trkpt>
      <trkpt lat="47.37508" lon="-1.00129">
        <ele>-6</ele>
        <time>2017-11-02T10:56:52Z</time>
      </trkpt>
      <trkpt lat="47.37524" lon="-1.00092">
        <ele>-6</ele>
        <time>2017-11-02T10:57:02Z</time>
      </trkpt>
      <trkpt lat="47.37539" lon="-1.00061">
        <ele>-6</ele>
        <time>2017-11-02T10:57:11Z</time>
      </trkpt>
      <trkpt lat="47.3755" lon="-1.00037">
        <ele>-6</ele>
        <time>2017-11-02T10:57:18Z</time>
      </trkpt>
      <trkpt lat="47.37567" lon="-0.99999">
        <ele>-6</ele>
        <time>2017-11-02T10:57:29Z</time>
      </trkpt>
      <trkpt lat="47.37583" lon="-0.99965">
        <ele>-6</ele>
        <time>2017-11-02T10:57:39Z</time>
      </trkpt>
      <trkpt lat="47.37599" lon="-0.99926">
        <ele>-6</ele>
        <time>2017-11-02T10:57:50Z</time>
      </trkpt>
      <trkpt lat="47.37612" lon="-0.99891">
        <ele>-6</ele>
        <time>2017-11-02T10:57:59Z</time>
      </trkpt>
      <trkpt lat="47.37622" lon="-0.99861">
        <ele>-6</ele>
        <time>2017-11-02T10:58:07Z</time>
      </trkpt>
      <trkpt lat="47.37635" lon="-0.99822">
        <ele>-6</ele>
        <time>2017-11-02T10:58:16Z</time>
      </trkpt>
      <trkpt lat="47.37648" lon="-0.99782">
        <ele>-6</ele>
        <time>2017-11-02T10:58:26Z</time>
      </trkpt>
      <trkpt lat="47.37656" lon="-0.99756">
        <ele>-6</ele>
        <time>2017-11-02T10:58:33Z</time>
      </trkpt>
      <trkpt lat="47.37667" lon="-0.99724">
        <ele>-6</ele>
        <time>2017-11-02T10:58:41Z</time>
      </trkpt>
      <trkpt lat="47.37677" lon="-0.99691">
        <ele>-6</ele>
        <time>2017-11-02T10:58:48Z</time>
      </trkpt>
      <trkpt lat="47.37692" lon="-0.99639">
        <ele>-6</ele>
        <time>2017-11-02T10:59:00Z</time>
      </trkpt>
      <trkpt lat="47.377" lon="-0.996">
        <ele>-6</ele>
        <time>2017-11-02T10:59:09Z</time>
      </trkpt>
      <trkpt lat="47.37703" lon="-0.9957">
        <ele>-6</ele>
        <time>2017-11-02T10:59:16Z</time>
      </trkpt>
      <trkpt lat="47.37706" lon="-0.99519">
        <ele>-6</ele>
        <time>2017-11-02T10:59:27Z</time>
      </trkpt>
      <trkpt lat="47.37706" lon="-0.99485">
        <ele>-6</ele>
        <time>2017-11-02T10:59:35Z</time>
      </trkpt>
      <trkpt lat="47.37709" lon="-0.99443">
        <ele>-6</ele>
        <time>2017-11-02T10:59:45Z</time>
      </trkpt>
      <trkpt lat="47.37712" lon="-0.99404">
        <ele>-6</ele>
        <time>2017-11-02T10:59:54Z</time>
      </trkpt>
      <trkpt lat="47.37717" lon="-0.9936">
        <ele>-6</ele>
        <time>2017-11-02T11:00:04Z</time>
      </trkpt>
      <trkpt lat="47.37722" lon="-0.99322">
        <ele>-6</ele>
        <time>2017-11-02T11:00:13Z</time>
      </trkpt>
      <trkpt lat="47.37726" lon="-0.99281">
        <ele>-6</ele>
        <time>2017-11-02T11:00:22Z</time>
      </trkpt>
      <trkpt lat="47.37729" lon="-0.99247">
        <ele>-6</ele>
        <time>2017-11-02T11:00:30Z</time>
      </trkpt>
      <trkpt lat="47.37731" lon="-0.99203">
        <ele>-6</ele>
        <time>2017-11-02T11:00:40Z</time>
      </trkpt>
      <trkpt lat="47.37731" lon="-0.99163">
        <ele>-6</ele>
        <time>2017-11-02T11:00:49Z</time>
      </trkpt>
      <trkpt lat="47.37731" lon="-0.99113">
        <ele>-6</ele>
        <time>2017-11-02T11:01:00Z</time>
      </trkpt>
      <trkpt lat="47.37733" lon="-0.9907">
        <ele>-6</ele>
        <time>2017-11-02T11:01:10Z</time>
      </trkpt>
      <trkpt lat="47.37737" lon="-0.99032">
        <ele>-6</ele>
        <time>2017-11-02T11:01:19Z</time>
      </trkpt>
      <trkpt lat="47.37741" lon="-0.99003">
        <ele>-6</ele>
        <time>2017-11-02T11:01:26Z</time>
      </trkpt>
      <trkpt lat="47.37746" lon="-0.98968">
        <ele>-6</ele>
        <time>2017-11-02T11:01:34Z</time>
      </trkpt>
      <trkpt lat="47.37747" lon="-0.98951">
        <ele>-6</ele>
        <time>2017-11-02T11:01:38Z</time>
      </trkpt>
      <trkpt lat="47.37742" lon="-0.98917">
        <ele>-6</ele>
        <time>2017-11-02T11:01:46Z</time>
      </trkpt>
      <trkpt lat="47.37744" lon="-0.9889">
        <ele>-6</ele>
        <time>2017-11-02T11:01:52Z</time>
      </trkpt>
      <trkpt lat="47.37756" lon="-0.98882">
        <ele>-7</ele>
        <time>2017-11-02T11:01:56Z</time>
      </trkpt>
      <trkpt lat="47.37774" lon="-0.98881">
        <ele>-7</ele>
        <time>2017-11-02T11:02:02Z</time>
      </trkpt>
      <trkpt lat="47.37795" lon="-0.98877">
        <ele>-7</ele>
        <time>2017-11-02T11:02:09Z</time>
      </trkpt>
      <trkpt lat="47.37818" lon="-0.98874">
        <ele>-7</ele>
        <time>2017-11-02T11:02:17Z</time>
      </trkpt>
      <trkpt lat="47.37841" lon="-0.9887">
        <ele>-7</ele>
        <time>2017-11-02T11:02:25Z</time>
      </trkpt>
      <trkpt lat="47.37871" lon="-0.98864">
        <ele>-7</ele>
        <time>2017-11-02T11:02:35Z</time>
      </trkpt>
      <trkpt lat="47.37892" lon="-0.98859">
        <ele>-7</ele>
        <time>2017-11-02T11:02:42Z</time>
      </trkpt>
      <trkpt lat="47.37929" lon="-0.98848">
        <ele>-7</ele>
        <time>2017-11-02T11:02:54Z</time>
      </trkpt>
      <trkpt lat="47.37951" lon="-0.98851">
        <ele>-7</ele>
        <time>2017-11-02T11:03:01Z</time>
      </trkpt>
      <trkpt lat="47.37976" lon="-0.98868">
        <ele>-7</ele>
        <time>2017-11-02T11:03:09Z</time>
      </trkpt>
      <trkpt lat="47.38004" lon="-0.98891">
        <ele>-7</ele>
        <time>2017-11-02T11:03:19Z</time>
      </trkpt>
      <trkpt lat="47.38027" lon="-0.98913">
        <ele>-7</ele>
        <time>2017-11-02T11:03:28Z</time>
      </trkpt>
      <trkpt lat="47.38049" lon="-0.9893">
        <ele>-7</ele>
        <time>2017-11-02T11:03:36Z</time>
      </trkpt>
      <trkpt lat="47.3807" lon="-0.98944">
        <ele>-7</ele>
        <time>2017-11-02T11:03:44Z</time>
      </trkpt>
      <trkpt lat="47.38096" lon="-0.9895">
        <ele>-7</ele>
        <time>2017-11-02T11:03:52Z</time>
      </trkpt>
      <trkpt lat="47.38125" lon="-0.98952">
        <ele>-7</ele>
        <time>2017-11-02T11:04:01Z</time>
      </trkpt>
      <trkpt lat="47.38151" lon="-0.98953">
        <ele>-7</ele>
        <time>2017-11-02T11:04:09Z</time>
      </trkpt>
      <trkpt lat="47.38172" lon="-0.98955">
        <ele>-7</ele>
        <time>2017-11-02T11:04:16Z</time>
      </trkpt>
      <trkpt lat="47.382" lon="-0.98957">
        <ele>-7</ele>
        <time>2017-11-02T11:04:25Z</time>
      </trkpt>
      <trkpt lat="47.3822" lon="-0.9896">
        <ele>-7</ele>
        <time>2017-11-02T11:04:31Z</time>
      </trkpt>
      <trkpt lat="47.38244" lon="-0.98961">
        <ele>-7</ele>
        <time>2017-11-02T11:04:39Z</time>
      </trkpt>
      <trkpt lat="47.38276" lon="-0.98964">
        <ele>-7</ele>
        <time>2017-11-02T11:04:49Z</time>
      </trkpt>
      <trkpt lat="47.38299" lon="-0.98963">
        <ele>-7</ele>
        <time>2017-11-02T11:04:56Z</time>
      </trkpt>
      <trkpt lat="47.38331" lon="-0.98966">
        <ele>-7</ele>
        <time>2017-11-02T11:05:05Z</time>
      </trkpt>
      <trkpt lat="47.38357" lon="-0.98967">
        <ele>-7</ele>
        <time>2017-11-02T11:05:13Z</time>
      </trkpt>
      <trkpt lat="47.38381" lon="-0.9897">
        <ele>-7</ele>
        <time>2017-11-02T11:05:21Z</time>
      </trkpt>
      <trkpt lat="47.384" lon="-0.98966">
        <ele>-7</ele>
        <time>2017-11-02T11:05:27Z</time>
      </trkpt>
      <trkpt lat="47.38403" lon="-0.98951">
        <ele>-7</ele>
        <time>2017-11-02T11:05:30Z</time>
      </trkpt>
      <trkpt lat="47.38407" lon="-0.98915">
        <ele>-7</ele>
        <time>2017-11-02T11:05:37Z</time>
      </trkpt>
      <trkpt lat="47.3841" lon="-0.98882">
        <ele>-7</ele>
        <time>2017-11-02T11:05:44Z</time>
      </trkpt>
      <trkpt lat="47.38414" lon="-0.98839">
        <ele>-7</ele>
        <time>2017-11-02T11:05:53Z</time>
      </trkpt>
      <trkpt lat="47.38417" lon="-0.98797">
        <ele>-7</ele>
        <time>2017-11-02T11:06:02Z</time>
      </trkpt>
      <trkpt lat="47.3842" lon="-0.98765">
        <ele>-7</ele>
        <time>2017-11-02T11:06:09Z</time>
      </trkpt>
      <trkpt lat="47.38424" lon="-0.98727">
        <ele>-7</ele>
        <time>2017-11-02T11:06:17Z</time>
      </trkpt>
      <trkpt lat="47.38427" lon="-0.98698">
        <ele>-7</ele>
        <time>2017-11-02T11:06:23Z</time>
      </trkpt>
      <trkpt lat="47.38428" lon="-0.98689">
        <ele>-7</ele>
        <time>2017-11-02T11:06:25Z</time>
      </trkpt>
      <trkpt lat="47.38431" lon="-0.98646">
        <ele>-7</ele>
        <time>2017-11-02T11:06:34Z</time>
      </trkpt>
      <trkpt lat="47.38433" lon="-0.98609">
        <ele>-7</ele>
        <time>2017-11-02T11:06:42Z</time>
      </trkpt>
      <trkpt lat="47.38438" lon="-0.98565">
        <ele>-7</ele>
        <time>2017-11-02T11:06:51Z</time>
      </trkpt>
      <trkpt lat="47.38446" lon="-0.98528">
        <ele>-7</ele>
        <time>2017-11-02T11:06:59Z</time>
      </trkpt>
      <trkpt lat="47.38455" lon="-0.98492">
        <ele>-7</ele>
        <time>2017-11-02T11:07:07Z</time>
      </trkpt>
      <trkpt lat="47.38464" lon="-0.9846">
        <ele>-7</ele>
        <time>2017-11-02T11:07:15Z</time>
      </trkpt>
      <trkpt lat="47.38472" lon="-0.98431">
        <ele>-7</ele>
        <time>2017-11-02T11:07:22Z</time>
      </trkpt>
      <trkpt lat="47.38484" lon="-0.98387">
        <ele>-7</ele>
        <time>2017-11-02T11:07:32Z</time>
      </trkpt>
      <trkpt lat="47.38495" lon="-0.98353">
        <ele>-7</ele>
        <time>2017-11-02T11:07:40Z</time>
      </trkpt>
      <trkpt lat="47.38503" lon="-0.98318">
        <ele>-7</ele>
        <time>2017-11-02T11:07:48Z</time>
      </trkpt>
      <trkpt lat="47.38498" lon="-0.98304">
        <ele>-7</ele>
        <time>2017-11-02T11:07:52Z</time>
      </trkpt>
      <trkpt lat="47.38481" lon="-0.98295">
        <ele>-7</ele>
        <time>2017-11-02T11:07:58Z</time>
      </trkpt>
      <trkpt lat="47.38468" lon="-0.98285">
        <ele>-7</ele>
        <time>2017-11-02T11:08:03Z</time>
      </trkpt>
      <trkpt lat="47.38459" lon="-0.9827">
        <ele>-7</ele>
        <time>2017-11-02T11:08:08Z</time>
      </trkpt>
      <trkpt lat="47.38462" lon="-0.98248">
        <ele>-7</ele>
        <time>2017-11-02T11:08:13Z</time>
      </trkpt>
      <trkpt lat="47.3847" lon="-0.98222">
        <ele>-7</ele>
        <time>2017-11-02T11:08:20Z</time>
      </trkpt>
      <trkpt lat="47.38482" lon="-0.98188">
        <ele>-7</ele>
        <time>2017-11-02T11:08:28Z</time>
      </trkpt>
      <trkpt lat="47.38492" lon="-0.98149">
        <ele>-7</ele>
        <time>2017-11-02T11:08:37Z</time>
      </trkpt>
      <trkpt lat="47.38501" lon="-0.98114">
        <ele>-7</ele>
        <time>2017-11-02T11:08:45Z</time>
      </trkpt>
      <trkpt lat="47.38511" lon="-0.9808">
        <ele>-7</ele>
        <time>2017-11-02T11:08:53Z</time>
      </trkpt>
      <trkpt lat="47.38522" lon="-0.98041">
        <ele>-7</ele>
        <time>2017-11-02T11:09:02Z</time>
      </trkpt>
      <trkpt lat="47.3853" lon="-0.98014">
        <ele>-7</ele>
        <time>2017-11-02T11:09:08Z</time>
      </trkpt>
      <trkpt lat="47.38537" lon="-0.97987">
        <ele>-7</ele>
        <time>2017-11-02T11:09:14Z</time>
      </trkpt>
      <trkpt lat="47.38547" lon="-0.9795">
        <ele>-7</ele>
        <time>2017-11-02T11:09:23Z</time>
      </trkpt>
      <trkpt lat="47.38557" lon="-0.97916">
        <ele>-7</ele>
        <time>2017-11-02T11:09:31Z</time>
      </trkpt>
      <trkpt lat="47.38565" lon="-0.97886">
        <ele>-7</ele>
        <time>2017-11-02T11:09:38Z</time>
      </trkpt>
      <trkpt lat="47.38578" lon="-0.97843">
        <ele>-7</ele>
        <time>2017-11-02T11:09:48Z</time>
      </trkpt>
      <trkpt lat="47.38589" lon="-0.97803">
        <ele>-7</ele>
        <time>2017-11-02T11:09:57Z</time>
      </trkpt>
      <trkpt lat="47.386" lon="-0.97766">
        <ele>-7</ele>
        <time>2017-11-02T11:10:06Z</time>
      </trkpt>
      <trkpt lat="47.38611" lon="-0.97725">
        <ele>-7</ele>
        <time>2017-11-02T11:10:16Z</time>
      </trkpt>
      <trkpt lat="47.38621" lon="-0.9769">
        <ele>-7</ele>
        <time>2017-11-02T11:10:25Z</time>
      </trkpt>
      <trkpt lat="47.38631" lon="-0.97653">
        <ele>-7</ele>
        <time>2017-11-02T11:10:34Z</time>
      </trkpt>
      <trkpt lat="47.38641" lon="-0.97616">
        <ele>-7</ele>
        <time>2017-11-02T11:10:43Z</time>
      </trkpt>
      <trkpt lat="47.3865" lon="-0.9758">
        <ele>-7</ele>
        <time>2017-11-02T11:10:52Z</time>
      </trkpt>
      <trkpt lat="47.38655" lon="-0.97559">
        <ele>-7</ele>
        <time>2017-11-02T11:10:58Z</time>
      </trkpt>
      <trkpt lat="47.38654" lon="-0.97556">
        <ele>-7</ele>
        <time>2017-11-02T11:10:59Z</time>
      </trkpt>
      <trkpt lat="47.38648" lon="-0.97552">
        <ele>-7</ele>
        <time>2017-11-02T11:11:01Z</time>
      </trkpt>
      <trkpt lat="47.38638" lon="-0.9755">
        <ele>-7</ele>
        <time>2017-11-02T11:11:04Z</time>
      </trkpt>
      <trkpt lat="47.38631" lon="-0.97548">
        <ele>-7</ele>
        <time>2017-11-02T11:11:06Z</time>
      </trkpt>
      <trkpt lat="47.38612" lon="-0.97544">
        <ele>-7</ele>
        <time>2017-11-02T11:11:13Z</time>
      </trkpt>
      <trkpt lat="47.38597" lon="-0.97535">
        <ele>-7</ele>
        <time>2017-11-02T11:11:19Z</time>
      </trkpt>
      <trkpt lat="47.38596" lon="-0.97531">
        <ele>-7</ele>
        <time>2017-11-02T11:11:20Z</time>
      </trkpt>
      <trkpt lat="47.38599" lon="-0.9751">
        <ele>-6</ele>
        <time>2017-11-02T11:11:25Z</time>
      </trkpt>
      <trkpt lat="47.386" lon="-0.97506">
        <ele>-6</ele>
        <time>2017-11-02T11:11:26Z</time>
      </trkpt>
      <trkpt lat="47.38609" lon="-0.97472">
        <ele>-6</ele>
        <time>2017-11-02T11:11:34Z</time>
      </trkpt>
      <trkpt lat="47.38617" lon="-0.97439">
        <ele>-6</ele>
        <time>2017-11-02T11:11:42Z</time>
      </trkpt>
      <trkpt lat="47.38625" lon="-0.97405">
        <ele>-6</ele>
        <time>2017-11-02T11:11:50Z</time>
      </trkpt>
      <trkpt lat="47.38635" lon="-0.97356">
        <ele>-6</ele>
        <time>2017-11-02T11:12:02Z</time>
      </trkpt>
      <trkpt lat="47.38644" lon="-0.97318">
        <ele>-6</ele>
        <time>2017-11-02T11:12:11Z</time>
      </trkpt>
      <trkpt lat="47.3865" lon="-0.97291">
        <ele>-6</ele>
        <time>2017-11-02T11:12:18Z</time>
      </trkpt>
      <trkpt lat="47.38655" lon="-0.9726">
        <ele>-6</ele>
        <time>2017-11-02T11:12:26Z</time>
      </trkpt>
      <trkpt lat="47.38662" lon="-0.97224">
        <ele>-6</ele>
        <time>2017-11-02T11:12:35Z</time>
      </trkpt>
      <trkpt lat="47.38671" lon="-0.97183">
        <ele>-6</ele>
        <time>2017-11-02T11:12:44Z</time>
      </trkpt>
      <trkpt lat="47.38679" lon="-0.97149">
        <ele>-6</ele>
        <time>2017-11-02T11:12:52Z</time>
      </trkpt>
      <trkpt lat="47.38687" lon="-0.97118">
        <ele>-6</ele>
        <time>2017-11-02T11:13:00Z</time>
      </trkpt>
      <trkpt lat="47.38698" lon="-0.97086">
        <ele>-6</ele>
        <time>2017-11-02T11:13:09Z</time>
      </trkpt>
      <trkpt lat="47.38709" lon="-0.97061">
        <ele>-6</ele>
        <time>2017-11-02T11:13:17Z</time>
      </trkpt>
      <trkpt lat="47.38718" lon="-0.97035">
        <ele>-7</ele>
        <time>2017-11-02T11:13:24Z</time>
      </trkpt>
      <trkpt lat="47.38726" lon="-0.97006">
        <ele>-6</ele>
        <time>2017-11-02T11:13:31Z</time>
      </trkpt>
      <trkpt lat="47.38731" lon="-0.9698">
        <ele>-6</ele>
        <time>2017-11-02T11:13:38Z</time>
      </trkpt>
      <trkpt lat="47.38736" lon="-0.96951">
        <ele>-6</ele>
        <time>2017-11-02T11:13:46Z</time>
      </trkpt>
      <trkpt lat="47.38742" lon="-0.96926">
        <ele>-6</ele>
        <time>2017-11-02T11:13:53Z</time>
      </trkpt>
      <trkpt lat="47.38749" lon="-0.96895">
        <ele>-6</ele>
        <time>2017-11-02T11:14:01Z</time>
      </trkpt>
      <trkpt lat="47.38748" lon="-0.96866">
        <ele>-6</ele>
        <time>2017-11-02T11:14:08Z</time>
      </trkpt>
      <trkpt lat="47.38746" lon="-0.96849">
        <ele>-5</ele>
        <time>2017-11-02T11:14:12Z</time>
      </trkpt>
      <trkpt lat="47.38745" lon="-0.96842">
        <ele>-5</ele>
        <time>2017-11-02T11:14:14Z</time>
      </trkpt>
      <trkpt lat="47.38749" lon="-0.96828">
        <ele>-5</ele>
        <time>2017-11-02T11:20:15Z</time>
      </trkpt>
      <trkpt lat="47.38754" lon="-0.96828">
        <ele>-5</ele>
        <time>2017-11-02T11:20:19Z</time>
      </trkpt>
      <trkpt lat="47.38767" lon="-0.96817">
        <ele>-5</ele>
        <time>2017-11-02T11:20:24Z</time>
      </trkpt>
      <trkpt lat="47.38774" lon="-0.96795">
        <ele>-5</ele>
        <time>2017-11-02T11:20:29Z</time>
      </trkpt>
      <trkpt lat="47.38781" lon="-0.96757">
        <ele>-5</ele>
        <time>2017-11-02T11:20:38Z</time>
      </trkpt>
      <trkpt lat="47.38786" lon="-0.96727">
        <ele>-5</ele>
        <time>2017-11-02T11:20:46Z</time>
      </trkpt>
      <trkpt lat="47.38797" lon="-0.96721">
        <ele>-4</ele>
        <time>2017-11-02T11:20:50Z</time>
      </trkpt>
      <trkpt lat="47.388" lon="-0.9672">
        <ele>-4</ele>
        <time>2017-11-02T11:20:51Z</time>
      </trkpt>
      <trkpt lat="47.38816" lon="-0.96716">
        <ele>-3</ele>
        <time>2017-11-02T11:20:57Z</time>
      </trkpt>
      <trkpt lat="47.38819" lon="-0.96715">
        <ele>-3</ele>
        <time>2017-11-02T11:20:58Z</time>
      </trkpt>
      <trkpt lat="47.38834" lon="-0.96707">
        <ele>-2</ele>
        <time>2017-11-02T11:21:05Z</time>
      </trkpt>
      <trkpt lat="47.38835" lon="-0.96703">
        <ele>-2</ele>
        <time>2017-11-02T11:21:06Z</time>
      </trkpt>
      <trkpt lat="47.38837" lon="-0.96691">
        <ele>-2</ele>
        <time>2017-11-02T11:21:09Z</time>
      </trkpt>
      <trkpt lat="47.38837" lon="-0.96687">
        <ele>-2</ele>
        <time>2017-11-02T11:21:10Z</time>
      </trkpt>
      <trkpt lat="47.38842" lon="-0.96657">
        <ele>-1</ele>
        <time>2017-11-02T11:21:18Z</time>
      </trkpt>
      <trkpt lat="47.38844" lon="-0.96643">
        <ele>-1</ele>
        <time>2017-11-02T11:21:22Z</time>
      </trkpt>
      <trkpt lat="47.38845" lon="-0.96636">
        <ele>-1</ele>
        <time>2017-11-02T11:21:25Z</time>
      </trkpt>
      <trkpt lat="47.38839" lon="-0.96633">
        <ele>-1</ele>
        <time>2017-11-02T11:21:29Z</time>
      </trkpt>
      <trkpt lat="47.38837" lon="-0.96633">
        <ele>-1</ele>
        <time>2017-11-02T11:21:30Z</time>
      </trkpt>
      <trkpt lat="47.38841" lon="-0.96631">
        <ele>-1</ele>
        <time>2017-11-02T11:24:10Z</time>
      </trkpt>
      <trkpt lat="47.38844" lon="-0.96633">
        <ele>-1</ele>
        <time>2017-11-02T11:24:12Z</time>
      </trkpt>
      <trkpt lat="47.38859" lon="-0.96637">
        <ele>-1</ele>
        <time>2017-11-02T11:24:18Z</time>
      </trkpt>
      <trkpt lat="47.38884" lon="-0.96643">
        <ele>-1</ele>
        <time>2017-11-02T11:24:27Z</time>
      </trkpt>
      <trkpt lat="47.38906" lon="-0.96651">
        <ele>-1</ele>
        <time>2017-11-02T11:24:35Z</time>
      </trkpt>
      <trkpt lat="47.38916" lon="-0.96654">
        <ele>-1</ele>
        <time>2017-11-02T11:24:41Z</time>
      </trkpt>
      <trkpt lat="47.38919" lon="-0.96644">
        <ele>-1</ele>
        <time>2017-11-02T11:24:48Z</time>
      </trkpt>
      <trkpt lat="47.38922" lon="-0.96634">
        <ele>-1</ele>
        <time>2017-11-02T11:24:52Z</time>
      </trkpt>
      <trkpt lat="47.38924" lon="-0.96627">
        <ele>-2</ele>
        <time>2017-11-02T11:24:56Z</time>
      </trkpt>
      <trkpt lat="47.38934" lon="-0.9664">
        <ele>-4</ele>
        <time>2017-11-02T11:25:14Z</time>
      </trkpt>
      <trkpt lat="47.38933" lon="-0.9666">
        <ele>-1</ele>
        <time>2017-11-02T11:25:33Z</time>
      </trkpt>
      <trkpt lat="47.38941" lon="-0.96666">
        <ele>-1</ele>
        <time>2017-11-02T11:25:38Z</time>
      </trkpt>
      <trkpt lat="47.38948" lon="-0.96682">
        <ele>-1</ele>
        <time>2017-11-02T11:25:43Z</time>
      </trkpt>
      <trkpt lat="47.38947" lon="-0.9671">
        <ele>-1</ele>
        <time>2017-11-02T11:25:49Z</time>
      </trkpt>
      <trkpt lat="47.38945" lon="-0.96743">
        <ele>-1</ele>
        <time>2017-11-02T11:25:57Z</time>
      </trkpt>
      <trkpt lat="47.38946" lon="-0.96755">
        <ele>-1</ele>
        <time>2017-11-02T11:26:03Z</time>
      </trkpt>
      <trkpt lat="47.38947" lon="-0.96755">
        <ele>-1</ele>
        <time>2017-11-02T11:26:04Z</time>
      </trkpt>
      <trkpt lat="47.38949" lon="-0.9675">
        <ele>-1</ele>
        <time>2017-11-02T11:26:08Z</time>
      </trkpt>
      <trkpt lat="47.38956" lon="-0.96751">
        <ele>-1</ele>
        <time>2017-11-02T11:26:12Z</time>
      </trkpt>
      <trkpt lat="47.38958" lon="-0.96751">
        <ele>-1</ele>
        <time>2017-11-02T11:26:13Z</time>
      </trkpt>
      <trkpt lat="47.38963" lon="-0.96755">
        <ele>-1</ele>
        <time>2017-11-02T11:26:16Z</time>
      </trkpt>
      <trkpt lat="47.38964" lon="-0.96759">
        <ele>-1</ele>
        <time>2017-11-02T11:26:18Z</time>
      </trkpt>
      <trkpt lat="47.38973" lon="-0.96764">
        <ele>-1</ele>
        <time>2017-11-02T11:26:25Z</time>
      </trkpt>
      <trkpt lat="47.38983" lon="-0.9676">
        <ele>-1</ele>
        <time>2017-11-02T11:26:33Z</time>
      </trkpt>
      <trkpt lat="47.3898" lon="-0.96759">
        <ele>16</ele>
        <time>2017-11-02T11:30:53Z</time>
      </trkpt>
      <trkpt lat="47.38978" lon="-0.96758">
        <ele>16</ele>
        <time>2017-11-02T11:30:54Z</time>
      </trkpt>
      <trkpt lat="47.38959" lon="-0.96752">
        <ele>16</ele>
        <time>2017-11-02T11:31:02Z</time>
      </trkpt>
      <trkpt lat="47.38947" lon="-0.96752">
        <ele>16</ele>
        <time>2017-11-02T11:31:08Z</time>
      </trkpt>
      <trkpt lat="47.38947" lon="-0.96753">
        <ele>16</ele>
        <time>2017-11-02T11:31:09Z</time>
      </trkpt>
      <trkpt lat="47.38945" lon="-0.9676">
        <ele>-1</ele>
        <time>2017-11-02T11:31:56Z</time>
      </trkpt>
      <trkpt lat="47.38946" lon="-0.96762">
        <ele>-1</ele>
        <time>2017-11-02T11:31:57Z</time>
      </trkpt>
      <trkpt lat="47.38944" lon="-0.96787">
        <ele>-1</ele>
        <time>2017-11-02T11:32:03Z</time>
      </trkpt>
      <trkpt lat="47.38944" lon="-0.96822">
        <ele>-1</ele>
        <time>2017-11-02T11:32:11Z</time>
      </trkpt>
      <trkpt lat="47.38943" lon="-0.96865">
        <ele>16</ele>
        <time>2017-11-02T11:32:21Z</time>
      </trkpt>
      <trkpt lat="47.38942" lon="-0.96914">
        <ele>16</ele>
        <time>2017-11-02T11:32:32Z</time>
      </trkpt>
      <trkpt lat="47.3894" lon="-0.96961">
        <ele>16.8</ele>
        <time>2017-11-02T11:32:43Z</time>
      </trkpt>
      <trkpt lat="47.3894" lon="-0.96992">
        <ele>1</ele>
        <time>2017-11-02T11:32:50Z</time>
      </trkpt>
      <trkpt lat="47.3894" lon="-0.97002">
        <ele>1</ele>
        <time>2017-11-02T11:32:52Z</time>
      </trkpt>
      <trkpt lat="47.38939" lon="-0.97042">
        <ele>1</ele>
        <time>2017-11-02T11:33:01Z</time>
      </trkpt>
      <trkpt lat="47.38938" lon="-0.97089">
        <ele>2</ele>
        <time>2017-11-02T11:33:11Z</time>
      </trkpt>
      <trkpt lat="47.38937" lon="-0.97111">
        <ele>2</ele>
        <time>2017-11-02T11:33:16Z</time>
      </trkpt>
      <trkpt lat="47.38936" lon="-0.97143">
        <ele>2</ele>
        <time>2017-11-02T11:33:23Z</time>
      </trkpt>
      <trkpt lat="47.3893" lon="-0.9719">
        <ele>3</ele>
        <time>2017-11-02T11:33:33Z</time>
      </trkpt>
      <trkpt lat="47.38922" lon="-0.97237">
        <ele>3</ele>
        <time>2017-11-02T11:33:43Z</time>
      </trkpt>
      <trkpt lat="47.38916" lon="-0.97268">
        <ele>3</ele>
        <time>2017-11-02T11:33:50Z</time>
      </trkpt>
      <trkpt lat="47.38914" lon="-0.97277">
        <ele>3</ele>
        <time>2017-11-02T11:33:52Z</time>
      </trkpt>
      <trkpt lat="47.38906" lon="-0.97324">
        <ele>3</ele>
        <time>2017-11-02T11:34:02Z</time>
      </trkpt>
      <trkpt lat="47.38897" lon="-0.97374">
        <ele>3</ele>
        <time>2017-11-02T11:34:12Z</time>
      </trkpt>
      <trkpt lat="47.38888" lon="-0.97438">
        <ele>3</ele>
        <time>2017-11-02T11:34:25Z</time>
      </trkpt>
      <trkpt lat="47.38879" lon="-0.97491">
        <ele>3</ele>
        <time>2017-11-02T11:34:36Z</time>
      </trkpt>
      <trkpt lat="47.38866" lon="-0.97542">
        <ele>3</ele>
        <time>2017-11-02T11:34:46Z</time>
      </trkpt>
      <trkpt lat="47.38858" lon="-0.9757">
        <ele>3</ele>
        <time>2017-11-02T11:34:51Z</time>
      </trkpt>
      <trkpt lat="47.38851" lon="-0.97593">
        <ele>2</ele>
        <time>2017-11-02T11:34:55Z</time>
      </trkpt>
      <trkpt lat="47.38846" lon="-0.97611">
        <ele>2</ele>
        <time>2017-11-02T11:34:58Z</time>
      </trkpt>
      <trkpt lat="47.38841" lon="-0.97632">
        <ele>2</ele>
        <time>2017-11-02T11:35:02Z</time>
      </trkpt>
      <trkpt lat="47.38833" lon="-0.9766">
        <ele>1</ele>
        <time>2017-11-02T11:35:08Z</time>
      </trkpt>
      <trkpt lat="47.38831" lon="-0.97669">
        <ele>1</ele>
        <time>2017-11-02T11:35:10Z</time>
      </trkpt>
      <trkpt lat="47.38822" lon="-0.97687">
        <ele>15.6</ele>
        <time>2017-11-02T11:35:15Z</time>
      </trkpt>
      <trkpt lat="47.38818" lon="-0.97686">
        <ele>15.4</ele>
        <time>2017-11-02T11:35:16Z</time>
      </trkpt>
      <trkpt lat="47.38803" lon="-0.97675">
        <ele>14.9</ele>
        <time>2017-11-02T11:35:20Z</time>
      </trkpt>
      <trkpt lat="47.38798" lon="-0.97673">
        <ele>14.7</ele>
        <time>2017-11-02T11:35:21Z</time>
      </trkpt>
      <trkpt lat="47.38776" lon="-0.97664">
        <ele>-1</ele>
        <time>2017-11-02T11:35:26Z</time>
      </trkpt>
      <trkpt lat="47.38747" lon="-0.97656">
        <ele>-2</ele>
        <time>2017-11-02T11:35:33Z</time>
      </trkpt>
      <trkpt lat="47.3873" lon="-0.97652">
        <ele>-2</ele>
        <time>2017-11-02T11:35:38Z</time>
      </trkpt>
      <trkpt lat="47.38722" lon="-0.9765">
        <ele>-2</ele>
        <time>2017-11-02T11:35:40Z</time>
      </trkpt>
      <trkpt lat="47.38708" lon="-0.97633">
        <ele>-2</ele>
        <time>2017-11-02T11:35:45Z</time>
      </trkpt>
      <trkpt lat="47.38703" lon="-0.97605">
        <ele>-3</ele>
        <time>2017-11-02T11:35:50Z</time>
      </trkpt>
      <trkpt lat="47.38691" lon="-0.97574">
        <ele>-3</ele>
        <time>2017-11-02T11:35:57Z</time>
      </trkpt>
      <trkpt lat="47.38676" lon="-0.97568">
        <ele>-3</ele>
        <time>2017-11-02T11:36:01Z</time>
      </trkpt>
      <trkpt lat="47.38673" lon="-0.97566">
        <ele>-3</ele>
        <time>2017-11-02T11:36:02Z</time>
      </trkpt>
      <trkpt lat="47.38658" lon="-0.97559">
        <ele>-4</ele>
        <time>2017-11-02T11:36:08Z</time>
      </trkpt>
      <trkpt lat="47.38656" lon="-0.97562">
        <ele>-4</ele>
        <time>2017-11-02T11:36:09Z</time>
      </trkpt>
      <trkpt lat="47.38651" lon="-0.97575">
        <ele>-4</ele>
        <time>2017-11-02T11:36:12Z</time>
      </trkpt>
      <trkpt lat="47.38649" lon="-0.97581">
        <ele>-4</ele>
        <time>2017-11-02T11:36:13Z</time>
      </trkpt>
      <trkpt lat="47.38642" lon="-0.97605">
        <ele>-4</ele>
        <time>2017-11-02T11:36:18Z</time>
      </trkpt>
      <trkpt lat="47.38632" lon="-0.97643">
        <ele>-5</ele>
        <time>2017-11-02T11:36:27Z</time>
      </trkpt>
      <trkpt lat="47.38622" lon="-0.97681">
        <ele>-5</ele>
        <time>2017-11-02T11:36:36Z</time>
      </trkpt>
      <trkpt lat="47.38611" lon="-0.97719">
        <ele>-5</ele>
        <time>2017-11-02T11:36:46Z</time>
      </trkpt>
      <trkpt lat="47.38602" lon="-0.97752">
        <ele>-5</ele>
        <time>2017-11-02T11:36:54Z</time>
      </trkpt>
      <trkpt lat="47.38591" lon="-0.97789">
        <ele>-5</ele>
        <time>2017-11-02T11:37:03Z</time>
      </trkpt>
      <trkpt lat="47.38581" lon="-0.97826">
        <ele>-5</ele>
        <time>2017-11-02T11:37:12Z</time>
      </trkpt>
      <trkpt lat="47.38573" lon="-0.97856">
        <ele>-5</ele>
        <time>2017-11-02T11:37:19Z</time>
      </trkpt>
      <trkpt lat="47.38564" lon="-0.97888">
        <ele>-5</ele>
        <time>2017-11-02T11:37:26Z</time>
      </trkpt>
      <trkpt lat="47.38558" lon="-0.97911">
        <ele>-5</ele>
        <time>2017-11-02T11:37:32Z</time>
      </trkpt>
      <trkpt lat="47.38549" lon="-0.97941">
        <ele>-5</ele>
        <time>2017-11-02T11:37:39Z</time>
      </trkpt>
      <trkpt lat="47.38539" lon="-0.97976">
        <ele>-5</ele>
        <time>2017-11-02T11:37:47Z</time>
      </trkpt>
      <trkpt lat="47.38528" lon="-0.98017">
        <ele>-5</ele>
        <time>2017-11-02T11:37:56Z</time>
      </trkpt>
      <trkpt lat="47.3852" lon="-0.98042">
        <ele>-5</ele>
        <time>2017-11-02T11:38:02Z</time>
      </trkpt>
      <trkpt lat="47.38511" lon="-0.98077">
        <ele>-5</ele>
        <time>2017-11-02T11:38:10Z</time>
      </trkpt>
      <trkpt lat="47.38501" lon="-0.98114">
        <ele>-5</ele>
        <time>2017-11-02T11:38:18Z</time>
      </trkpt>
      <trkpt lat="47.385" lon="-0.98119">
        <ele>-6</ele>
        <time>2017-11-02T11:38:19Z</time>
      </trkpt>
      <trkpt lat="47.38488" lon="-0.98162">
        <ele>-5</ele>
        <time>2017-11-02T11:38:29Z</time>
      </trkpt>
      <trkpt lat="47.38476" lon="-0.98206">
        <ele>-5</ele>
        <time>2017-11-02T11:38:39Z</time>
      </trkpt>
      <trkpt lat="47.38466" lon="-0.98235">
        <ele>-5</ele>
        <time>2017-11-02T11:38:46Z</time>
      </trkpt>
      <trkpt lat="47.38458" lon="-0.98273">
        <ele>-5</ele>
        <time>2017-11-02T11:38:55Z</time>
      </trkpt>
      <trkpt lat="47.38468" lon="-0.98285">
        <ele>-5</ele>
        <time>2017-11-02T11:38:59Z</time>
      </trkpt>
      <trkpt lat="47.38486" lon="-0.98295">
        <ele>-5</ele>
        <time>2017-11-02T11:39:05Z</time>
      </trkpt>
      <trkpt lat="47.38504" lon="-0.98312">
        <ele>-5</ele>
        <time>2017-11-02T11:39:11Z</time>
      </trkpt>
      <trkpt lat="47.38504" lon="-0.98318">
        <ele>-5</ele>
        <time>2017-11-02T11:39:12Z</time>
      </trkpt>
      <trkpt lat="47.38502" lon="-0.98329">
        <ele>-5</ele>
        <time>2017-11-02T11:39:14Z</time>
      </trkpt>
      <trkpt lat="47.38491" lon="-0.98366">
        <ele>-5</ele>
        <time>2017-11-02T11:39:21Z</time>
      </trkpt>
      <trkpt lat="47.38478" lon="-0.98411">
        <ele>-5</ele>
        <time>2017-11-02T11:39:29Z</time>
      </trkpt>
      <trkpt lat="47.38462" lon="-0.98467">
        <ele>-5</ele>
        <time>2017-11-02T11:39:38Z</time>
      </trkpt>
      <trkpt lat="47.38444" lon="-0.98533">
        <ele>-5</ele>
        <time>2017-11-02T11:39:47Z</time>
      </trkpt>
      <trkpt lat="47.38437" lon="-0.98581">
        <ele>-5</ele>
        <time>2017-11-02T11:39:53Z</time>
      </trkpt>
      <trkpt lat="47.38433" lon="-0.98638">
        <ele>-5</ele>
        <time>2017-11-02T11:40:00Z</time>
      </trkpt>
      <trkpt lat="47.38428" lon="-0.98694">
        <ele>-5</ele>
        <time>2017-11-02T11:40:07Z</time>
      </trkpt>
      <trkpt lat="47.38425" lon="-0.98749">
        <ele>-5</ele>
        <time>2017-11-02T11:40:13Z</time>
      </trkpt>
      <trkpt lat="47.38418" lon="-0.98811">
        <ele>-5</ele>
        <time>2017-11-02T11:40:19Z</time>
      </trkpt>
      <trkpt lat="47.3841" lon="-0.98886">
        <ele>-5</ele>
        <time>2017-11-02T11:40:27Z</time>
      </trkpt>
      <trkpt lat="47.38405" lon="-0.98937">
        <ele>-5</ele>
        <time>2017-11-02T11:40:34Z</time>
      </trkpt>
      <trkpt lat="47.38402" lon="-0.98963">
        <ele>-6</ele>
        <time>2017-11-02T11:40:40Z</time>
      </trkpt>
      <trkpt lat="47.38401" lon="-0.98976">
        <ele>-7</ele>
        <time>2017-11-02T11:44:31Z</time>
      </trkpt>
      <trkpt lat="47.38397" lon="-0.99003">
        <ele>-7</ele>
        <time>2017-11-02T11:44:37Z</time>
      </trkpt>
      <trkpt lat="47.38393" lon="-0.99049">
        <ele>-7</ele>
        <time>2017-11-02T11:44:46Z</time>
      </trkpt>
      <trkpt lat="47.38389" lon="-0.99095">
        <ele>-7</ele>
        <time>2017-11-02T11:44:55Z</time>
      </trkpt>
      <trkpt lat="47.38384" lon="-0.99148">
        <ele>-7</ele>
        <time>2017-11-02T11:45:04Z</time>
      </trkpt>
      <trkpt lat="47.38379" lon="-0.9919">
        <ele>-7</ele>
        <time>2017-11-02T11:45:12Z</time>
      </trkpt>
      <trkpt lat="47.38376" lon="-0.99244">
        <ele>-7</ele>
        <time>2017-11-02T11:45:22Z</time>
      </trkpt>
      <trkpt lat="47.38372" lon="-0.99296">
        <ele>-7</ele>
        <time>2017-11-02T11:45:31Z</time>
      </trkpt>
      <trkpt lat="47.38367" lon="-0.99341">
        <ele>-7</ele>
        <time>2017-11-02T11:45:39Z</time>
      </trkpt>
      <trkpt lat="47.38359" lon="-0.99402">
        <ele>-7</ele>
        <time>2017-11-02T11:45:50Z</time>
      </trkpt>
      <trkpt lat="47.38357" lon="-0.99442">
        <ele>-7</ele>
        <time>2017-11-02T11:45:57Z</time>
      </trkpt>
      <trkpt lat="47.38352" lon="-0.99475">
        <ele>-8</ele>
        <time>2017-11-02T11:46:03Z</time>
      </trkpt>
      <trkpt lat="47.38352" lon="-0.99481">
        <ele>-8</ele>
        <time>2017-11-02T11:46:04Z</time>
      </trkpt>
      <trkpt lat="47.38348" lon="-0.99505">
        <ele>-8</ele>
        <time>2017-11-02T11:46:09Z</time>
      </trkpt>
      <trkpt lat="47.38342" lon="-0.99539">
        <ele>-7</ele>
        <time>2017-11-02T11:46:16Z</time>
      </trkpt>
      <trkpt lat="47.38338" lon="-0.99564">
        <ele>-7</ele>
        <time>2017-11-02T11:46:22Z</time>
      </trkpt>
      <trkpt lat="47.38337" lon="-0.99568">
        <ele>-7</ele>
        <time>2017-11-02T11:46:23Z</time>
      </trkpt>
      <trkpt lat="47.38335" lon="-0.99591">
        <ele>-6</ele>
        <time>2017-11-02T11:46:28Z</time>
      </trkpt>
      <trkpt lat="47.38334" lon="-0.996">
        <ele>-5</ele>
        <time>2017-11-02T11:46:30Z</time>
      </trkpt>
      <trkpt lat="47.38328" lon="-0.9964">
        <ele>-4</ele>
        <time>2017-11-02T11:46:38Z</time>
      </trkpt>
      <trkpt lat="47.38324" lon="-0.99666">
        <ele>-3</ele>
        <time>2017-11-02T11:46:44Z</time>
      </trkpt>
      <trkpt lat="47.38322" lon="-0.99674">
        <ele>-3</ele>
        <time>2017-11-02T11:46:46Z</time>
      </trkpt>
      <trkpt lat="47.38318" lon="-0.99689">
        <ele>-2</ele>
        <time>2017-11-02T11:46:50Z</time>
      </trkpt>
      <trkpt lat="47.38315" lon="-0.99699">
        <ele>-1</ele>
        <time>2017-11-02T11:46:53Z</time>
      </trkpt>
      <trkpt lat="47.38314" lon="-0.99703">
        <ele>-1</ele>
        <time>2017-11-02T11:46:54Z</time>
      </trkpt>
      <trkpt lat="47.38306" lon="-0.99724">
        <ele>19</ele>
        <time>2017-11-02T11:46:59Z</time>
      </trkpt>
      <trkpt lat="47.38299" lon="-0.99757">
        <ele>1</ele>
        <time>2017-11-02T11:47:06Z</time>
      </trkpt>
      <trkpt lat="47.38295" lon="-0.99778">
        <ele>2</ele>
        <time>2017-11-02T11:47:13Z</time>
      </trkpt>
      <trkpt lat="47.38301" lon="-0.99773">
        <ele>3</ele>
        <time>2017-11-02T12:06:17Z</time>
      </trkpt>
      <trkpt lat="47.38297" lon="-0.99786">
        <ele>3</ele>
        <time>2017-11-02T12:06:21Z</time>
      </trkpt>
      <trkpt lat="47.38295" lon="-0.9979">
        <ele>3</ele>
        <time>2017-11-02T12:06:23Z</time>
      </trkpt>
      <trkpt lat="47.38292" lon="-0.99797">
        <ele>3</ele>
        <time>2017-11-02T12:06:26Z</time>
      </trkpt>
      <trkpt lat="47.38287" lon="-0.99813">
        <ele>3</ele>
        <time>2017-11-02T12:06:32Z</time>
      </trkpt>
      <trkpt lat="47.38284" lon="-0.99829">
        <ele>3</ele>
        <time>2017-11-02T12:06:38Z</time>
      </trkpt>
      <trkpt lat="47.38285" lon="-0.99837">
        <ele>3</ele>
        <time>2017-11-02T12:06:40Z</time>
      </trkpt>
      <trkpt lat="47.38286" lon="-0.99845">
        <ele>3</ele>
        <time>2017-11-02T12:06:42Z</time>
      </trkpt>
      <trkpt lat="47.38295" lon="-0.99883">
        <ele>4</ele>
        <time>2017-11-02T12:06:50Z</time>
      </trkpt>
      <trkpt lat="47.383" lon="-0.99912">
        <ele>4</ele>
        <time>2017-11-02T12:06:56Z</time>
      </trkpt>
      <trkpt lat="47.38307" lon="-0.99955">
        <ele>4</ele>
        <time>2017-11-02T12:07:05Z</time>
      </trkpt>
      <trkpt lat="47.38313" lon="-0.99981">
        <ele>5</ele>
        <time>2017-11-02T12:07:12Z</time>
      </trkpt>
      <trkpt lat="47.38315" lon="-0.99987">
        <ele>5</ele>
        <time>2017-11-02T12:07:46Z</time>
      </trkpt>
      <trkpt lat="47.38316" lon="-1.00008">
        <ele>5</ele>
        <time>2017-11-02T12:07:50Z</time>
      </trkpt>
      <trkpt lat="47.38318" lon="-1.00038">
        <ele>6</ele>
        <time>2017-11-02T12:07:56Z</time>
      </trkpt>
      <trkpt lat="47.38321" lon="-1.00064">
        <ele>6</ele>
        <time>2017-11-02T12:08:01Z</time>
      </trkpt>
      <trkpt lat="47.38324" lon="-1.00084">
        <ele>7</ele>
        <time>2017-11-02T12:08:05Z</time>
      </trkpt>
      <trkpt lat="47.38327" lon="-1.00109">
        <ele>7</ele>
        <time>2017-11-02T12:08:10Z</time>
      </trkpt>
      <trkpt lat="47.3833" lon="-1.00129">
        <ele>8</ele>
        <time>2017-11-02T12:08:14Z</time>
      </trkpt>
      <trkpt lat="47.38333" lon="-1.00148">
        <ele>8</ele>
        <time>2017-11-02T12:08:18Z</time>
      </trkpt>
      <trkpt lat="47.38337" lon="-1.0017">
        <ele>9</ele>
        <time>2017-11-02T12:08:22Z</time>
      </trkpt>
      <trkpt lat="47.38344" lon="-1.00215">
        <ele>9</ele>
        <time>2017-11-02T12:08:30Z</time>
      </trkpt>
      <trkpt lat="47.3835" lon="-1.00258">
        <ele>9</ele>
        <time>2017-11-02T12:08:38Z</time>
      </trkpt>
      <trkpt lat="47.38357" lon="-1.00309">
        <ele>9</ele>
        <time>2017-11-02T12:08:48Z</time>
      </trkpt>
      <trkpt lat="47.3836" lon="-1.00345">
        <ele>9</ele>
        <time>2017-11-02T12:08:56Z</time>
      </trkpt>
      <trkpt lat="47.38362" lon="-1.00386">
        <ele>9</ele>
        <time>2017-11-02T12:09:04Z</time>
      </trkpt>
      <trkpt lat="47.38365" lon="-1.00428">
        <ele>9</ele>
        <time>2017-11-02T12:09:13Z</time>
      </trkpt>
      <trkpt lat="47.38367" lon="-1.00464">
        <ele>9</ele>
        <time>2017-11-02T12:09:21Z</time>
      </trkpt>
      <trkpt lat="47.38367" lon="-1.00474">
        <ele>9</ele>
        <time>2017-11-02T12:09:23Z</time>
      </trkpt>
      <trkpt lat="47.38369" lon="-1.00511">
        <ele>9</ele>
        <time>2017-11-02T12:09:31Z</time>
      </trkpt>
      <trkpt lat="47.38369" lon="-1.0052">
        <ele>10</ele>
        <time>2017-11-02T12:09:33Z</time>
      </trkpt>
      <trkpt lat="47.38374" lon="-1.00565">
        <ele>10</ele>
        <time>2017-11-02T12:09:43Z</time>
      </trkpt>
      <trkpt lat="47.38376" lon="-1.00578">
        <ele>10</ele>
        <time>2017-11-02T12:09:46Z</time>
      </trkpt>
      <trkpt lat="47.3838" lon="-1.00605">
        <ele>11</ele>
        <time>2017-11-02T12:09:52Z</time>
      </trkpt>
      <trkpt lat="47.38386" lon="-1.00646">
        <ele>11</ele>
        <time>2017-11-02T12:10:01Z</time>
      </trkpt>
      <trkpt lat="47.38385" lon="-1.00669">
        <ele>10</ele>
        <time>2017-11-02T12:10:07Z</time>
      </trkpt>
      <trkpt lat="47.38376" lon="-1.00668">
        <ele>10</ele>
        <time>2017-11-02T12:10:10Z</time>
      </trkpt>
      <trkpt lat="47.38373" lon="-1.00666">
        <ele>10</ele>
        <time>2017-11-02T12:10:11Z</time>
      </trkpt>
      <trkpt lat="47.38357" lon="-1.00659">
        <ele>9</ele>
        <time>2017-11-02T12:10:16Z</time>
      </trkpt>
      <trkpt lat="47.38354" lon="-1.00658">
        <ele>9</ele>
        <time>2017-11-02T12:10:17Z</time>
      </trkpt>
      <trkpt lat="47.38349" lon="-1.00656">
        <ele>8</ele>
        <time>2017-11-02T12:10:19Z</time>
      </trkpt>
      <trkpt lat="47.38341" lon="-1.00651">
        <ele>7</ele>
        <time>2017-11-02T12:10:22Z</time>
      </trkpt>
      <trkpt lat="47.38338" lon="-1.0065">
        <ele>7</ele>
        <time>2017-11-02T12:10:23Z</time>
      </trkpt>
      <trkpt lat="47.38332" lon="-1.00647">
        <ele>6</ele>
        <time>2017-11-02T12:10:25Z</time>
      </trkpt>
      <trkpt lat="47.38321" lon="-1.0064">
        <ele>4</ele>
        <time>2017-11-02T12:10:29Z</time>
      </trkpt>
      <trkpt lat="47.38312" lon="-1.00633">
        <ele>3</ele>
        <time>2017-11-02T12:10:32Z</time>
      </trkpt>
      <trkpt lat="47.38303" lon="-1.00628">
        <ele>1</ele>
        <time>2017-11-02T12:10:35Z</time>
      </trkpt>
      <trkpt lat="47.383" lon="-1.00626">
        <ele>1</ele>
        <time>2017-11-02T12:10:36Z</time>
      </trkpt>
      <trkpt lat="47.38293" lon="-1.00623">
        <ele>15.1</ele>
        <time>2017-11-02T12:10:38Z</time>
      </trkpt>
      <trkpt lat="47.38284" lon="-1.00619">
        <ele>-1</ele>
        <time>2017-11-02T12:10:41Z</time>
      </trkpt>
      <trkpt lat="47.38279" lon="-1.00615">
        <ele>-2</ele>
        <time>2017-11-02T12:10:43Z</time>
      </trkpt>
      <trkpt lat="47.38273" lon="-1.00613">
        <ele>-2</ele>
        <time>2017-11-02T12:10:46Z</time>
      </trkpt>
      <trkpt lat="47.38269" lon="-1.00617">
        <ele>-3</ele>
        <time>2017-11-02T12:10:48Z</time>
      </trkpt>
      <trkpt lat="47.38267" lon="-1.00625">
        <ele>-3</ele>
        <time>2017-11-02T12:10:50Z</time>
      </trkpt>
      <trkpt lat="47.38266" lon="-1.00633">
        <ele>-4</ele>
        <time>2017-11-02T12:10:52Z</time>
      </trkpt>
      <trkpt lat="47.38265" lon="-1.00647">
        <ele>-4</ele>
        <time>2017-11-02T12:10:55Z</time>
      </trkpt>
      <trkpt lat="47.38263" lon="-1.00667">
        <ele>-4</ele>
        <time>2017-11-02T12:10:59Z</time>
      </trkpt>
      <trkpt lat="47.38261" lon="-1.00685">
        <ele>-3</ele>
        <time>2017-11-02T12:11:03Z</time>
      </trkpt>
      <trkpt lat="47.38261" lon="-1.00694">
        <ele>-3</ele>
        <time>2017-11-02T12:11:05Z</time>
      </trkpt>
      <trkpt lat="47.3826" lon="-1.00706">
        <ele>-2</ele>
        <time>2017-11-02T12:11:08Z</time>
      </trkpt>
      <trkpt lat="47.3826" lon="-1.00721">
        <ele>-2</ele>
        <time>2017-11-02T12:11:12Z</time>
      </trkpt>
      <trkpt lat="47.3826" lon="-1.00733">
        <ele>-1</ele>
        <time>2017-11-02T12:11:16Z</time>
      </trkpt>
      <trkpt lat="47.38259" lon="-1.00735">
        <ele>-1</ele>
        <time>2017-11-02T12:11:17Z</time>
      </trkpt>
      <trkpt lat="47.38257" lon="-1.00735">
        <ele>-1</ele>
        <time>2017-11-02T12:11:18Z</time>
      </trkpt>
      <trkpt lat="47.38252" lon="-1.0073">
        <ele>-1</ele>
        <time>2017-11-02T12:11:22Z</time>
      </trkpt>
      <trkpt lat="47.38251" lon="-1.00728">
        <ele>16.2</ele>
        <time>2017-11-02T12:11:23Z</time>
      </trkpt>
      <trkpt lat="47.3825" lon="-1.00727">
        <ele>16.2</ele>
        <time>2017-11-02T12:11:24Z</time>
      </trkpt>
      <trkpt lat="47.38245" lon="-1.00719">
        <ele>1</ele>
        <time>2017-11-02T12:11:28Z</time>
      </trkpt>
      <trkpt lat="47.38244" lon="-1.00717">
        <ele>1</ele>
        <time>2017-11-02T12:11:29Z</time>
      </trkpt>
      <trkpt lat="47.38239" lon="-1.00706">
        <ele>2</ele>
        <time>2017-11-02T12:11:34Z</time>
      </trkpt>
      <trkpt lat="47.38237" lon="-1.00703">
        <ele>2</ele>
        <time>2017-11-02T12:11:35Z</time>
      </trkpt>
      <trkpt lat="47.38225" lon="-1.00692">
        <ele>3</ele>
        <time>2017-11-02T12:11:42Z</time>
      </trkpt>
      <trkpt lat="47.3822" lon="-1.00695">
        <ele>3</ele>
        <time>2017-11-02T12:11:44Z</time>
      </trkpt>
      <trkpt lat="47.38217" lon="-1.007">
        <ele>3</ele>
        <time>2017-11-02T12:11:46Z</time>
      </trkpt>
      <trkpt lat="47.38215" lon="-1.00703">
        <ele>3</ele>
        <time>2017-11-02T12:11:47Z</time>
      </trkpt>
      <trkpt lat="47.38214" lon="-1.00706">
        <ele>3</ele>
        <time>2017-11-02T12:11:48Z</time>
      </trkpt>
      <trkpt lat="47.3821" lon="-1.00718">
        <ele>3</ele>
        <time>2017-11-02T12:11:52Z</time>
      </trkpt>
      <trkpt lat="47.38202" lon="-1.00745">
        <ele>4</ele>
        <time>2017-11-02T12:12:01Z</time>
      </trkpt>
      <trkpt lat="47.38196" lon="-1.00774">
        <ele>5</ele>
        <time>2017-11-02T12:12:10Z</time>
      </trkpt>
      <trkpt lat="47.38195" lon="-1.00781">
        <ele>5</ele>
        <time>2017-11-02T12:12:12Z</time>
      </trkpt>
      <trkpt lat="47.38193" lon="-1.00792">
        <ele>6</ele>
        <time>2017-11-02T12:12:16Z</time>
      </trkpt>
      <trkpt lat="47.38191" lon="-1.00806">
        <ele>6</ele>
        <time>2017-11-02T12:12:20Z</time>
      </trkpt>
      <trkpt lat="47.38189" lon="-1.00816">
        <ele>7</ele>
        <time>2017-11-02T12:12:23Z</time>
      </trkpt>
      <trkpt lat="47.38185" lon="-1.00836">
        <ele>7</ele>
        <time>2017-11-02T12:12:29Z</time>
      </trkpt>
      <trkpt lat="47.38183" lon="-1.00846">
        <ele>7</ele>
        <time>2017-11-02T12:12:32Z</time>
      </trkpt>
      <trkpt lat="47.38181" lon="-1.00853">
        <ele>8</ele>
        <time>2017-11-02T12:12:34Z</time>
      </trkpt>
      <trkpt lat="47.38178" lon="-1.00871">
        <ele>8</ele>
        <time>2017-11-02T12:12:40Z</time>
      </trkpt>
      <trkpt lat="47.38175" lon="-1.00878">
        <ele>8</ele>
        <time>2017-11-02T12:12:42Z</time>
      </trkpt>
      <trkpt lat="47.38172" lon="-1.00886">
        <ele>9</ele>
        <time>2017-11-02T12:12:45Z</time>
      </trkpt>
      <trkpt lat="47.38167" lon="-1.00901">
        <ele>9</ele>
        <time>2017-11-02T12:12:50Z</time>
      </trkpt>
      <trkpt lat="47.38166" lon="-1.00905">
        <ele>10</ele>
        <time>2017-11-02T12:12:51Z</time>
      </trkpt>
      <trkpt lat="47.38159" lon="-1.00923">
        <ele>10</ele>
        <time>2017-11-02T12:12:57Z</time>
      </trkpt>
      <trkpt lat="47.38157" lon="-1.00929">
        <ele>11</ele>
        <time>2017-11-02T12:12:59Z</time>
      </trkpt>
      <trkpt lat="47.38153" lon="-1.00954">
        <ele>11</ele>
        <time>2017-11-02T12:13:06Z</time>
      </trkpt>
      <trkpt lat="47.38152" lon="-1.00957">
        <ele>12</ele>
        <time>2017-11-02T12:13:07Z</time>
      </trkpt>
      <trkpt lat="47.38151" lon="-1.00982">
        <ele>12</ele>
        <time>2017-11-02T12:13:14Z</time>
      </trkpt>
      <trkpt lat="47.3815" lon="-1.01003">
        <ele>13</ele>
        <time>2017-11-02T12:13:20Z</time>
      </trkpt>
      <trkpt lat="47.3815" lon="-1.0101">
        <ele>13</ele>
        <time>2017-11-02T12:13:22Z</time>
      </trkpt>
      <trkpt lat="47.38149" lon="-1.01036">
        <ele>13</ele>
        <time>2017-11-02T12:13:29Z</time>
      </trkpt>
      <trkpt lat="47.38147" lon="-1.01061">
        <ele>14</ele>
        <time>2017-11-02T12:13:36Z</time>
      </trkpt>
      <trkpt lat="47.38143" lon="-1.0109">
        <ele>15</ele>
        <time>2017-11-02T12:13:44Z</time>
      </trkpt>
      <trkpt lat="47.38143" lon="-1.01093">
        <ele>15</ele>
        <time>2017-11-02T12:13:45Z</time>
      </trkpt>
      <trkpt lat="47.38139" lon="-1.01125">
        <ele>16</ele>
        <time>2017-11-02T12:13:54Z</time>
      </trkpt>
      <trkpt lat="47.38136" lon="-1.01154">
        <ele>16</ele>
        <time>2017-11-02T12:14:01Z</time>
      </trkpt>
      <trkpt lat="47.38136" lon="-1.01168">
        <ele>16</ele>
        <time>2017-11-02T12:14:04Z</time>
      </trkpt>
      <trkpt lat="47.38133" lon="-1.01186">
        <ele>16</ele>
        <time>2017-11-02T12:14:08Z</time>
      </trkpt>
      <trkpt lat="47.38132" lon="-1.01211">
        <ele>16</ele>
        <time>2017-11-02T12:14:14Z</time>
      </trkpt>
      <trkpt lat="47.3813" lon="-1.01239">
        <ele>15</ele>
        <time>2017-11-02T12:14:21Z</time>
      </trkpt>
      <trkpt lat="47.38128" lon="-1.01263">
        <ele>15</ele>
        <time>2017-11-02T12:14:27Z</time>
      </trkpt>
      <trkpt lat="47.38126" lon="-1.01293">
        <ele>16</ele>
        <time>2017-11-02T12:14:34Z</time>
      </trkpt>
      <trkpt lat="47.38124" lon="-1.01344">
        <ele>15</ele>
        <time>2017-11-02T12:14:44Z</time>
      </trkpt>
      <trkpt lat="47.38121" lon="-1.01365">
        <ele>15</ele>
        <time>2017-11-02T12:14:51Z</time>
      </trkpt>
      <trkpt lat="47.38122" lon="-1.01374">
        <ele>16</ele>
        <time>2017-11-02T12:21:13Z</time>
      </trkpt>
      <trkpt lat="47.3812" lon="-1.01376">
        <ele>16</ele>
        <time>2017-11-02T12:21:14Z</time>
      </trkpt>
      <trkpt lat="47.38115" lon="-1.01393">
        <ele>16</ele>
        <time>2017-11-02T12:21:20Z</time>
      </trkpt>
      <trkpt lat="47.38114" lon="-1.01401">
        <ele>17</ele>
        <time>2017-11-02T12:21:22Z</time>
      </trkpt>
      <trkpt lat="47.38111" lon="-1.01416">
        <ele>17</ele>
        <time>2017-11-02T12:21:26Z</time>
      </trkpt>
      <trkpt lat="47.3811" lon="-1.0144">
        <ele>17</ele>
        <time>2017-11-02T12:21:32Z</time>
      </trkpt>
      <trkpt lat="47.38108" lon="-1.01483">
        <ele>17</ele>
        <time>2017-11-02T12:21:41Z</time>
      </trkpt>
      <trkpt lat="47.38103" lon="-1.01527">
        <ele>17</ele>
        <time>2017-11-02T12:21:49Z</time>
      </trkpt>
      <trkpt lat="47.38097" lon="-1.01574">
        <ele>17</ele>
        <time>2017-11-02T12:21:58Z</time>
      </trkpt>
      <trkpt lat="47.38094" lon="-1.01604">
        <ele>17</ele>
        <time>2017-11-02T12:22:05Z</time>
      </trkpt>
      <trkpt lat="47.38095" lon="-1.01648">
        <ele>17</ele>
        <time>2017-11-02T12:22:15Z</time>
      </trkpt>
      <trkpt lat="47.381" lon="-1.01692">
        <ele>17</ele>
        <time>2017-11-02T12:22:25Z</time>
      </trkpt>
      <trkpt lat="47.38104" lon="-1.01721">
        <ele>17</ele>
        <time>2017-11-02T12:22:33Z</time>
      </trkpt>
      <trkpt lat="47.3811" lon="-1.01759">
        <ele>17</ele>
        <time>2017-11-02T12:22:43Z</time>
      </trkpt>
      <trkpt lat="47.38114" lon="-1.01795">
        <ele>17</ele>
        <time>2017-11-02T12:22:53Z</time>
      </trkpt>
      <trkpt lat="47.3812" lon="-1.01829">
        <ele>17</ele>
        <time>2017-11-02T12:23:03Z</time>
      </trkpt>
      <trkpt lat="47.38129" lon="-1.01835">
        <ele>17</ele>
        <time>2017-11-02T12:23:08Z</time>
      </trkpt>
      <trkpt lat="47.38136" lon="-1.01836">
        <ele>18</ele>
        <time>2017-11-02T12:25:04Z</time>
      </trkpt>
      <trkpt lat="47.38148" lon="-1.01837">
        <ele>18</ele>
        <time>2017-11-02T12:25:09Z</time>
      </trkpt>
      <trkpt lat="47.38172" lon="-1.01839">
        <ele>17</ele>
        <time>2017-11-02T12:25:16Z</time>
      </trkpt>
      <trkpt lat="47.38206" lon="-1.01843">
        <ele>17</ele>
        <time>2017-11-02T12:25:26Z</time>
      </trkpt>
      <trkpt lat="47.38231" lon="-1.01844">
        <ele>17</ele>
        <time>2017-11-02T12:25:34Z</time>
      </trkpt>
      <trkpt lat="47.38256" lon="-1.01846">
        <ele>17</ele>
        <time>2017-11-02T12:25:42Z</time>
      </trkpt>
      <trkpt lat="47.38281" lon="-1.01848">
        <ele>18</ele>
        <time>2017-11-02T12:25:51Z</time>
      </trkpt>
      <trkpt lat="47.38284" lon="-1.01848">
        <ele>18</ele>
        <time>2017-11-02T12:25:52Z</time>
      </trkpt>
      <trkpt lat="47.38309" lon="-1.0185">
        <ele>19</ele>
        <time>2017-11-02T12:26:01Z</time>
      </trkpt>
      <trkpt lat="47.38323" lon="-1.01854">
        <ele>19</ele>
        <time>2017-11-02T12:26:06Z</time>
      </trkpt>
      <trkpt lat="47.38331" lon="-1.01858">
        <ele>19</ele>
        <time>2017-11-02T12:26:09Z</time>
      </trkpt>
      <trkpt lat="47.38352" lon="-1.01868">
        <ele>19</ele>
        <time>2017-11-02T12:26:17Z</time>
      </trkpt>
      <trkpt lat="47.38368" lon="-1.01875">
        <ele>19</ele>
        <time>2017-11-02T12:26:25Z</time>
      </trkpt>
      <trkpt lat="47.38371" lon="-1.01875">
        <ele>19</ele>
        <time>2017-11-02T12:26:54Z</time>
      </trkpt>
      <trkpt lat="47.38375" lon="-1.01876">
        <ele>19</ele>
        <time>2017-11-02T12:26:56Z</time>
      </trkpt>
      <trkpt lat="47.38391" lon="-1.01877">
        <ele>19</ele>
        <time>2017-11-02T12:27:01Z</time>
      </trkpt>
      <trkpt lat="47.3842" lon="-1.01876">
        <ele>18</ele>
        <time>2017-11-02T12:27:08Z</time>
      </trkpt>
      <trkpt lat="47.38458" lon="-1.01874">
        <ele>18</ele>
        <time>2017-11-02T12:27:14Z</time>
      </trkpt>
      <trkpt lat="47.38493" lon="-1.01871">
        <ele>17</ele>
        <time>2017-11-02T12:27:19Z</time>
      </trkpt>
      <trkpt lat="47.38521" lon="-1.01869">
        <ele>16</ele>
        <time>2017-11-02T12:27:23Z</time>
      </trkpt>
      <trkpt lat="47.38527" lon="-1.01868">
        <ele>15</ele>
        <time>2017-11-02T12:27:24Z</time>
      </trkpt>
      <trkpt lat="47.38576" lon="-1.01864">
        <ele>15</ele>
        <time>2017-11-02T12:27:32Z</time>
      </trkpt>
      <trkpt lat="47.38586" lon="-1.01863">
        <ele>15</ele>
        <time>2017-11-02T12:27:34Z</time>
      </trkpt>
      <trkpt lat="47.38616" lon="-1.01859">
        <ele>14</ele>
        <time>2017-11-02T12:27:40Z</time>
      </trkpt>
      <trkpt lat="47.38668" lon="-1.01854">
        <ele>14</ele>
        <time>2017-11-02T12:27:50Z</time>
      </trkpt>
      <trkpt lat="47.3871" lon="-1.01849">
        <ele>14</ele>
        <time>2017-11-02T12:27:58Z</time>
      </trkpt>
      <trkpt lat="47.38735" lon="-1.01846">
        <ele>13</ele>
        <time>2017-11-02T12:28:04Z</time>
      </trkpt>
      <trkpt lat="47.38746" lon="-1.01849">
        <ele>13</ele>
        <time>2017-11-02T12:28:09Z</time>
      </trkpt>
      <trkpt lat="47.38748" lon="-1.01852">
        <ele>13</ele>
        <time>2017-11-02T12:28:10Z</time>
      </trkpt>
      <trkpt lat="47.3875" lon="-1.01866">
        <ele>13</ele>
        <time>2017-11-02T12:28:13Z</time>
      </trkpt>
      <trkpt lat="47.38756" lon="-1.01886">
        <ele>13</ele>
        <time>2017-11-02T12:28:17Z</time>
      </trkpt>
      <trkpt lat="47.38759" lon="-1.01895">
        <ele>13</ele>
        <time>2017-11-02T12:28:19Z</time>
      </trkpt>
      <trkpt lat="47.38778" lon="-1.01929">
        <ele>13</ele>
        <time>2017-11-02T12:28:27Z</time>
      </trkpt>
      <trkpt lat="47.38802" lon="-1.01966">
        <ele>14</ele>
        <time>2017-11-02T12:28:36Z</time>
      </trkpt>
      <trkpt lat="47.38829" lon="-1.02008">
        <ele>14</ele>
        <time>2017-11-02T12:28:46Z</time>
      </trkpt>
      <trkpt lat="47.38845" lon="-1.02044">
        <ele>13</ele>
        <time>2017-11-02T12:28:54Z</time>
      </trkpt>
      <trkpt lat="47.38859" lon="-1.02081">
        <ele>13</ele>
        <time>2017-11-02T12:29:01Z</time>
      </trkpt>
      <trkpt lat="47.38871" lon="-1.02118">
        <ele>13</ele>
        <time>2017-11-02T12:29:09Z</time>
      </trkpt>
      <trkpt lat="47.38886" lon="-1.02139">
        <ele>13</ele>
        <time>2017-11-02T12:29:16Z</time>
      </trkpt>
      <trkpt lat="47.38895" lon="-1.02133">
        <ele>13</ele>
        <time>2017-11-02T12:29:20Z</time>
      </trkpt>
      <trkpt lat="47.38897" lon="-1.02132">
        <ele>13</ele>
        <time>2017-11-02T12:29:21Z</time>
      </trkpt>
      <trkpt lat="47.389" lon="-1.02131">
        <ele>12</ele>
        <time>2017-11-02T12:29:23Z</time>
      </trkpt>
      <trkpt lat="47.38902" lon="-1.02131">
        <ele>13</ele>
        <time>2017-11-02T12:30:01Z</time>
      </trkpt>
      <trkpt lat="47.38904" lon="-1.02131">
        <ele>13</ele>
        <time>2017-11-02T12:30:02Z</time>
      </trkpt>
      <trkpt lat="47.3891" lon="-1.0214">
        <ele>13</ele>
        <time>2017-11-02T12:30:05Z</time>
      </trkpt>
      <trkpt lat="47.38911" lon="-1.02144">
        <ele>13</ele>
        <time>2017-11-02T12:30:06Z</time>
      </trkpt>
      <trkpt lat="47.38921" lon="-1.02161">
        <ele>13</ele>
        <time>2017-11-02T12:30:11Z</time>
      </trkpt>
      <trkpt lat="47.38928" lon="-1.02164">
        <ele>14</ele>
        <time>2017-11-02T12:30:13Z</time>
      </trkpt>
      <trkpt lat="47.38937" lon="-1.02178">
        <ele>14</ele>
        <time>2017-11-02T12:30:17Z</time>
      </trkpt>
      <trkpt lat="47.3894" lon="-1.02203">
        <ele>13</ele>
        <time>2017-11-02T12:30:22Z</time>
      </trkpt>
      <trkpt lat="47.38931" lon="-1.02218">
        <ele>14</ele>
        <time>2017-11-02T12:30:26Z</time>
      </trkpt>
      <trkpt lat="47.38918" lon="-1.02223">
        <ele>14</ele>
        <time>2017-11-02T12:30:30Z</time>
      </trkpt>
      <trkpt lat="47.389" lon="-1.02231">
        <ele>14</ele>
        <time>2017-11-02T12:30:36Z</time>
      </trkpt>
      <trkpt lat="47.38899" lon="-1.02236">
        <ele>14</ele>
        <time>2017-11-02T12:30:37Z</time>
      </trkpt>
      <trkpt lat="47.38893" lon="-1.02243">
        <ele>14</ele>
        <time>2017-11-02T12:30:40Z</time>
      </trkpt>
      <trkpt lat="47.38888" lon="-1.02249">
        <ele>15</ele>
        <time>2017-11-02T12:30:42Z</time>
      </trkpt>
      <trkpt lat="47.38875" lon="-1.0227">
        <ele>15</ele>
        <time>2017-11-02T12:30:48Z</time>
      </trkpt>
      <trkpt lat="47.38857" lon="-1.02293">
        <ele>16</ele>
        <time>2017-11-02T12:30:55Z</time>
      </trkpt>
      <trkpt lat="47.3885" lon="-1.02303">
        <ele>16</ele>
        <time>2017-11-02T12:30:58Z</time>
      </trkpt>
      <trkpt lat="47.38832" lon="-1.02326">
        <ele>16</ele>
        <time>2017-11-02T12:31:06Z</time>
      </trkpt>
      <trkpt lat="47.38817" lon="-1.02347">
        <ele>17</ele>
        <time>2017-11-02T12:31:12Z</time>
      </trkpt>
      <trkpt lat="47.38808" lon="-1.0236">
        <ele>17</ele>
        <time>2017-11-02T12:31:16Z</time>
      </trkpt>
      <trkpt lat="47.38795" lon="-1.02387">
        <ele>17</ele>
        <time>2017-11-02T12:31:23Z</time>
      </trkpt>
      <trkpt lat="47.38789" lon="-1.02407">
        <ele>18</ele>
        <time>2017-11-02T12:31:28Z</time>
      </trkpt>
      <trkpt lat="47.38789" lon="-1.02411">
        <ele>18</ele>
        <time>2017-11-02T12:31:29Z</time>
      </trkpt>
      <trkpt lat="47.38792" lon="-1.02442">
        <ele>18</ele>
        <time>2017-11-02T12:31:35Z</time>
      </trkpt>
      <trkpt lat="47.38794" lon="-1.02467">
        <ele>19</ele>
        <time>2017-11-02T12:31:40Z</time>
      </trkpt>
      <trkpt lat="47.38796" lon="-1.02493">
        <ele>19</ele>
        <time>2017-11-02T12:31:45Z</time>
      </trkpt>
      <trkpt lat="47.38799" lon="-1.02544">
        <ele>20</ele>
        <time>2017-11-02T12:31:55Z</time>
      </trkpt>
      <trkpt lat="47.388" lon="-1.02554">
        <ele>20</ele>
        <time>2017-11-02T12:31:57Z</time>
      </trkpt>
      <trkpt lat="47.38804" lon="-1.0259">
        <ele>20</ele>
        <time>2017-11-02T12:32:04Z</time>
      </trkpt>
      <trkpt lat="47.38812" lon="-1.02633">
        <ele>20</ele>
        <time>2017-11-02T12:32:13Z</time>
      </trkpt>
      <trkpt lat="47.3882" lon="-1.02671">
        <ele>20</ele>
        <time>2017-11-02T12:32:22Z</time>
      </trkpt>
      <trkpt lat="47.3882" lon="-1.02676">
        <ele>20</ele>
        <time>2017-11-02T12:33:06Z</time>
      </trkpt>
      <trkpt lat="47.38826" lon="-1.02699">
        <ele>20</ele>
        <time>2017-11-02T12:33:12Z</time>
      </trkpt>
      <trkpt lat="47.38836" lon="-1.02748">
        <ele>21</ele>
        <time>2017-11-02T12:33:22Z</time>
      </trkpt>
      <trkpt lat="47.38837" lon="-1.02753">
        <ele>21</ele>
        <time>2017-11-02T12:33:23Z</time>
      </trkpt>
      <trkpt lat="47.38849" lon="-1.02813">
        <ele>22</ele>
        <time>2017-11-02T12:33:35Z</time>
      </trkpt>
      <trkpt lat="47.38852" lon="-1.02828">
        <ele>22</ele>
        <time>2017-11-02T12:33:38Z</time>
      </trkpt>
      <trkpt lat="47.38861" lon="-1.02869">
        <ele>23</ele>
        <time>2017-11-02T12:33:47Z</time>
      </trkpt>
      <trkpt lat="47.38866" lon="-1.02888">
        <ele>23</ele>
        <time>2017-11-02T12:33:53Z</time>
      </trkpt>
      <trkpt lat="47.38867" lon="-1.0289">
        <ele>23</ele>
        <time>2017-11-02T12:33:54Z</time>
      </trkpt>
      <trkpt lat="47.38869" lon="-1.02892">
        <ele>23</ele>
        <time>2017-11-02T12:33:55Z</time>
      </trkpt>
      <trkpt lat="47.38874" lon="-1.02892">
        <ele>23</ele>
        <time>2017-11-02T12:33:57Z</time>
      </trkpt>
      <trkpt lat="47.38877" lon="-1.0289">
        <ele>23</ele>
        <time>2017-11-02T12:33:58Z</time>
      </trkpt>
      <trkpt lat="47.38902" lon="-1.02879">
        <ele>24</ele>
        <time>2017-11-02T12:34:05Z</time>
      </trkpt>
      <trkpt lat="47.38934" lon="-1.02866">
        <ele>24</ele>
        <time>2017-11-02T12:34:15Z</time>
      </trkpt>
      <trkpt lat="47.38944" lon="-1.02862">
        <ele>24</ele>
        <time>2017-11-02T12:34:18Z</time>
      </trkpt>
      <trkpt lat="47.38965" lon="-1.02852">
        <ele>24</ele>
        <time>2017-11-02T12:34:25Z</time>
      </trkpt>
      <trkpt lat="47.38971" lon="-1.02852">
        <ele>24</ele>
        <time>2017-11-02T12:34:27Z</time>
      </trkpt>
      <trkpt lat="47.38974" lon="-1.02855">
        <ele>24</ele>
        <time>2017-11-02T12:34:28Z</time>
      </trkpt>
      <trkpt lat="47.38975" lon="-1.02868">
        <ele>24</ele>
        <time>2017-11-02T12:34:31Z</time>
      </trkpt>
      <trkpt lat="47.38975" lon="-1.02882">
        <ele>24</ele>
        <time>2017-11-02T12:34:34Z</time>
      </trkpt>
      <trkpt lat="47.38977" lon="-1.02896">
        <ele>25</ele>
        <time>2017-11-02T12:34:37Z</time>
      </trkpt>
      <trkpt lat="47.38982" lon="-1.02928">
        <ele>25</ele>
        <time>2017-11-02T12:34:44Z</time>
      </trkpt>
      <trkpt lat="47.38984" lon="-1.02942">
        <ele>25</ele>
        <time>2017-11-02T12:34:47Z</time>
      </trkpt>
      <trkpt lat="47.38992" lon="-1.02987">
        <ele>26</ele>
        <time>2017-11-02T12:34:57Z</time>
      </trkpt>
      <trkpt lat="47.38992" lon="-1.02991">
        <ele>26</ele>
        <time>2017-11-02T12:34:58Z</time>
      </trkpt>
      <trkpt lat="47.39001" lon="-1.03037">
        <ele>27</ele>
        <time>2017-11-02T12:35:08Z</time>
      </trkpt>
      <trkpt lat="47.39005" lon="-1.0307">
        <ele>27</ele>
        <time>2017-11-02T12:35:16Z</time>
      </trkpt>
      <trkpt lat="47.38998" lon="-1.03081">
        <ele>27</ele>
        <time>2017-11-02T12:35:20Z</time>
      </trkpt>
      <trkpt lat="47.38983" lon="-1.03087">
        <ele>27</ele>
        <time>2017-11-02T12:35:26Z</time>
      </trkpt>
      <trkpt lat="47.38965" lon="-1.03082">
        <ele>27</ele>
        <time>2017-11-02T12:35:32Z</time>
      </trkpt>
      <trkpt lat="47.38942" lon="-1.03092">
        <ele>27</ele>
        <time>2017-11-02T12:35:39Z</time>
      </trkpt>
      <trkpt lat="47.38925" lon="-1.03116">
        <ele>27</ele>
        <time>2017-11-02T12:35:46Z</time>
      </trkpt>
      <trkpt lat="47.38919" lon="-1.03141">
        <ele>27</ele>
        <time>2017-11-02T12:35:52Z</time>
      </trkpt>
      <trkpt lat="47.38923" lon="-1.03171">
        <ele>27</ele>
        <time>2017-11-02T12:35:58Z</time>
      </trkpt>
      <trkpt lat="47.38932" lon="-1.03196">
        <ele>27</ele>
        <time>2017-11-02T12:36:04Z</time>
      </trkpt>
      <trkpt lat="47.38943" lon="-1.03222">
        <ele>27</ele>
        <time>2017-11-02T12:36:11Z</time>
      </trkpt>
      <trkpt lat="47.38946" lon="-1.03233">
        <ele>27</ele>
        <time>2017-11-02T12:36:14Z</time>
      </trkpt>
      <trkpt lat="47.38958" lon="-1.03262">
        <ele>27</ele>
        <time>2017-11-02T12:36:23Z</time>
      </trkpt>
      <trkpt lat="47.38959" lon="-1.03277">
        <ele>27</ele>
        <time>2017-11-02T12:36:28Z</time>
      </trkpt>
      <trkpt lat="47.38959" lon="-1.03281">
        <ele>27</ele>
        <time>2017-11-02T12:36:29Z</time>
      </trkpt>
      <trkpt lat="47.38963" lon="-1.03294">
        <ele>27</ele>
        <time>2017-11-02T12:36:32Z</time>
      </trkpt>
      <trkpt lat="47.38964" lon="-1.03298">
        <ele>27</ele>
        <time>2017-11-02T12:36:33Z</time>
      </trkpt>
      <trkpt lat="47.38967" lon="-1.03322">
        <ele>27</ele>
        <time>2017-11-02T12:36:38Z</time>
      </trkpt>
      <trkpt lat="47.38957" lon="-1.03352">
        <ele>27</ele>
        <time>2017-11-02T12:36:45Z</time>
      </trkpt>
      <trkpt lat="47.38954" lon="-1.03359">
        <ele>27</ele>
        <time>2017-11-02T12:36:48Z</time>
      </trkpt>
      <trkpt lat="47.38953" lon="-1.03359">
        <ele>27</ele>
        <time>2017-11-02T12:36:49Z</time>
      </trkpt>
    </trkseg>
  </trk>
</gpx>